<?xml version="1.0" encoding="UTF-8" standalone="no" ?>
<gpx xmlns="http://www.topografix.com/GPX/1/1" xmlns:xsi="http://www.w3.org/2001/XMLSchema-instance" xsi:schemaLocation="http://www.topografix.com/GPX/1/1 http://www.topografix.com/GPX/1/1/gpx.xsd" version="1.1" creator="VisuGPX - https://www.visugpx.com">
  <metadata>
    <name>HBA_Sortie 28 juin Rochefort-en-Terre</name>
  </metadata>
  <wpt lat="47.69755" lon="-2.35335">
    <ele>68.6</ele>
    <name><![CDATA[Traversée de route]]></name>
    <desc><![CDATA[]]></desc>
  </wpt>
  <wpt lat="47.69974" lon="-2.3535">
    <ele>58.5</ele>
    <name><![CDATA[Traversée de route]]></name>
    <desc><![CDATA[]]></desc>
  </wpt>
  <wpt lat="47.70276" lon="-2.34174">
    <ele>52.9</ele>
    <name><![CDATA[Descente dangereuse sur 50m]]></name>
    <desc><![CDATA[]]></desc>
  </wpt>
  <wpt lat="47.70302" lon="-2.3391">
    <ele>75.2</ele>
    <name><![CDATA[Point de vue]]></name>
    <desc><![CDATA[]]></desc>
  </wpt>
  <wpt lat="47.70032" lon="-2.33914">
    <ele>65.3</ele>
    <name><![CDATA[Point de vue]]></name>
    <desc><![CDATA[]]></desc>
  </wpt>
  <wpt lat="47.69173" lon="-2.35279">
    <ele>46.2</ele>
    <name><![CDATA[Pause déjeuner]]></name>
    <desc><![CDATA[]]></desc>
  </wpt>
  <trk>
    <name><![CDATA[Sortie HBA 28 juin 2025-21564215]]></name>
    <trkseg>
      <trkpt lat="47.69905" lon="-2.33427">
        <ele>47</ele>
        <time>2025-06-17T13:38:13Z</time>
      </trkpt>
      <trkpt lat="47.69888" lon="-2.33369">
        <ele>45</ele>
        <time>2025-06-17T13:39:10Z</time>
      </trkpt>
      <trkpt lat="47.69884" lon="-2.33347">
        <ele>45</ele>
        <time>2025-06-17T13:39:30Z</time>
      </trkpt>
      <trkpt lat="47.69868" lon="-2.33289">
        <ele>44</ele>
        <time>2025-06-17T13:40:27Z</time>
      </trkpt>
      <trkpt lat="47.69859" lon="-2.33259">
        <ele>43</ele>
        <time>2025-06-17T13:40:56Z</time>
      </trkpt>
      <trkpt lat="47.6983" lon="-2.33136">
        <ele>43</ele>
        <time>2025-06-17T13:42:53Z</time>
      </trkpt>
      <trkpt lat="47.69822" lon="-2.33124">
        <ele>41</ele>
        <time>2025-06-17T13:43:08Z</time>
      </trkpt>
      <trkpt lat="47.69817" lon="-2.33117">
        <ele>41</ele>
        <time>2025-06-17T13:43:17Z</time>
      </trkpt>
      <trkpt lat="47.69812" lon="-2.33093">
        <ele>40</ele>
        <time>2025-06-17T13:43:40Z</time>
      </trkpt>
      <trkpt lat="47.69802" lon="-2.33077">
        <ele>38</ele>
        <time>2025-06-17T13:44:00Z</time>
      </trkpt>
      <trkpt lat="47.69787" lon="-2.33045">
        <ele>35</ele>
        <time>2025-06-17T13:44:35Z</time>
      </trkpt>
      <trkpt lat="47.69781" lon="-2.33034">
        <ele>34</ele>
        <time>2025-06-17T13:44:47Z</time>
      </trkpt>
      <trkpt lat="47.69775" lon="-2.3303">
        <ele>33</ele>
        <time>2025-06-17T13:44:56Z</time>
      </trkpt>
      <trkpt lat="47.69771" lon="-2.33023">
        <ele>32</ele>
        <time>2025-06-17T13:45:04Z</time>
      </trkpt>
      <trkpt lat="47.69772" lon="-2.33012">
        <ele>32</ele>
        <time>2025-06-17T13:45:14Z</time>
      </trkpt>
      <trkpt lat="47.69761" lon="-2.33002">
        <ele>31</ele>
        <time>2025-06-17T13:45:32Z</time>
      </trkpt>
      <trkpt lat="47.69761" lon="-2.32992">
        <ele>31</ele>
        <time>2025-06-17T13:45:41Z</time>
      </trkpt>
      <trkpt lat="47.6976" lon="-2.32991">
        <ele>31</ele>
        <time>2025-06-17T13:45:42Z</time>
      </trkpt>
      <trkpt lat="47.69747" lon="-2.32974">
        <ele>31</ele>
        <time>2025-06-17T13:46:05Z</time>
      </trkpt>
      <trkpt lat="47.69741" lon="-2.32967">
        <ele>31</ele>
        <time>2025-06-17T13:46:15Z</time>
      </trkpt>
      <trkpt lat="47.69733" lon="-2.32957">
        <ele>32</ele>
        <time>2025-06-17T13:46:29Z</time>
      </trkpt>
      <trkpt lat="47.69728" lon="-2.32951">
        <ele>32</ele>
        <time>2025-06-17T13:46:38Z</time>
      </trkpt>
      <trkpt lat="47.69689" lon="-2.33006">
        <ele>36</ele>
        <time>2025-06-17T13:47:50Z</time>
      </trkpt>
      <trkpt lat="47.69675" lon="-2.33021">
        <ele>38</ele>
        <time>2025-06-17T13:48:13Z</time>
      </trkpt>
      <trkpt lat="47.69684" lon="-2.33077">
        <ele>40</ele>
        <time>2025-06-17T13:49:04Z</time>
      </trkpt>
      <trkpt lat="47.69684" lon="-2.33142">
        <ele>43</ele>
        <time>2025-06-17T13:50:03Z</time>
      </trkpt>
      <trkpt lat="47.69686" lon="-2.33159">
        <ele>43</ele>
        <time>2025-06-17T13:50:18Z</time>
      </trkpt>
      <trkpt lat="47.69683" lon="-2.33182">
        <ele>44</ele>
        <time>2025-06-17T13:50:39Z</time>
      </trkpt>
      <trkpt lat="47.69687" lon="-2.33205">
        <ele>43</ele>
        <time>2025-06-17T13:51:01Z</time>
      </trkpt>
      <trkpt lat="47.69686" lon="-2.33213">
        <ele>43</ele>
        <time>2025-06-17T13:51:08Z</time>
      </trkpt>
      <trkpt lat="47.69682" lon="-2.33259">
        <ele>43</ele>
        <time>2025-06-17T13:51:50Z</time>
      </trkpt>
      <trkpt lat="47.69674" lon="-2.33288">
        <ele>43</ele>
        <time>2025-06-17T13:52:18Z</time>
      </trkpt>
      <trkpt lat="47.69688" lon="-2.33329">
        <ele>42</ele>
        <time>2025-06-17T13:52:59Z</time>
      </trkpt>
      <trkpt lat="47.69691" lon="-2.33351">
        <ele>42</ele>
        <time>2025-06-17T13:53:19Z</time>
      </trkpt>
      <trkpt lat="47.69695" lon="-2.33373">
        <ele>43</ele>
        <time>2025-06-17T13:53:40Z</time>
      </trkpt>
      <trkpt lat="47.69698" lon="-2.33391">
        <ele>43</ele>
        <time>2025-06-17T13:53:56Z</time>
      </trkpt>
      <trkpt lat="47.69703" lon="-2.33405">
        <ele>43</ele>
        <time>2025-06-17T13:54:11Z</time>
      </trkpt>
      <trkpt lat="47.69709" lon="-2.33411">
        <ele>43</ele>
        <time>2025-06-17T13:54:20Z</time>
      </trkpt>
      <trkpt lat="47.69712" lon="-2.33426">
        <ele>43</ele>
        <time>2025-06-17T13:54:34Z</time>
      </trkpt>
      <trkpt lat="47.6971" lon="-2.3344">
        <ele>43</ele>
        <time>2025-06-17T13:54:47Z</time>
      </trkpt>
      <trkpt lat="47.69716" lon="-2.33463">
        <ele>43</ele>
        <time>2025-06-17T13:55:09Z</time>
      </trkpt>
      <trkpt lat="47.69729" lon="-2.33468">
        <ele>42</ele>
        <time>2025-06-17T13:55:27Z</time>
      </trkpt>
      <trkpt lat="47.69752" lon="-2.33482">
        <ele>41</ele>
        <time>2025-06-17T13:56:00Z</time>
      </trkpt>
      <trkpt lat="47.69761" lon="-2.335">
        <ele>41</ele>
        <time>2025-06-17T13:56:21Z</time>
      </trkpt>
      <trkpt lat="47.69763" lon="-2.33508">
        <ele>41</ele>
        <time>2025-06-17T13:56:28Z</time>
      </trkpt>
      <trkpt lat="47.6977" lon="-2.33529">
        <ele>40</ele>
        <time>2025-06-17T13:56:49Z</time>
      </trkpt>
      <trkpt lat="47.69773" lon="-2.33556">
        <ele>39</ele>
        <time>2025-06-17T13:57:14Z</time>
      </trkpt>
      <trkpt lat="47.69773" lon="-2.33572">
        <ele>39</ele>
        <time>2025-06-17T13:57:28Z</time>
      </trkpt>
      <trkpt lat="47.69771" lon="-2.33585">
        <ele>38</ele>
        <time>2025-06-17T13:57:40Z</time>
      </trkpt>
      <trkpt lat="47.69763" lon="-2.33599">
        <ele>38</ele>
        <time>2025-06-17T13:57:57Z</time>
      </trkpt>
      <trkpt lat="47.69746" lon="-2.33607">
        <ele>38</ele>
        <time>2025-06-17T13:58:21Z</time>
      </trkpt>
      <trkpt lat="47.69738" lon="-2.33626">
        <ele>38</ele>
        <time>2025-06-17T13:58:41Z</time>
      </trkpt>
      <trkpt lat="47.69727" lon="-2.3363">
        <ele>39</ele>
        <time>2025-06-17T13:58:56Z</time>
      </trkpt>
      <trkpt lat="47.69724" lon="-2.33643">
        <ele>39</ele>
        <time>2025-06-17T13:59:08Z</time>
      </trkpt>
      <trkpt lat="47.69718" lon="-2.33644">
        <ele>40</ele>
        <time>2025-06-17T13:59:16Z</time>
      </trkpt>
      <trkpt lat="47.6971" lon="-2.33652">
        <ele>41</ele>
        <time>2025-06-17T13:59:29Z</time>
      </trkpt>
      <trkpt lat="47.69696" lon="-2.3368">
        <ele>42</ele>
        <time>2025-06-17T14:00:00Z</time>
      </trkpt>
      <trkpt lat="47.69683" lon="-2.3371">
        <ele>43</ele>
        <time>2025-06-17T14:00:32Z</time>
      </trkpt>
      <trkpt lat="47.69666" lon="-2.33773">
        <ele>45</ele>
        <time>2025-06-17T14:01:33Z</time>
      </trkpt>
      <trkpt lat="47.69662" lon="-2.33801">
        <ele>46</ele>
        <time>2025-06-17T14:01:59Z</time>
      </trkpt>
      <trkpt lat="47.69659" lon="-2.33824">
        <ele>46</ele>
        <time>2025-06-17T14:02:20Z</time>
      </trkpt>
      <trkpt lat="47.69657" lon="-2.33896">
        <ele>49</ele>
        <time>2025-06-17T14:03:25Z</time>
      </trkpt>
      <trkpt lat="47.69656" lon="-2.33906">
        <ele>49</ele>
        <time>2025-06-17T14:03:34Z</time>
      </trkpt>
      <trkpt lat="47.69653" lon="-2.33915">
        <ele>50</ele>
        <time>2025-06-17T14:03:43Z</time>
      </trkpt>
      <trkpt lat="47.69647" lon="-2.33923">
        <ele>50</ele>
        <time>2025-06-17T14:03:54Z</time>
      </trkpt>
      <trkpt lat="47.6964" lon="-2.33931">
        <ele>51</ele>
        <time>2025-06-17T14:04:06Z</time>
      </trkpt>
      <trkpt lat="47.69609" lon="-2.33941">
        <ele>53</ele>
        <time>2025-06-17T14:04:48Z</time>
      </trkpt>
      <trkpt lat="47.69599" lon="-2.33947">
        <ele>53</ele>
        <time>2025-06-17T14:05:02Z</time>
      </trkpt>
      <trkpt lat="47.69594" lon="-2.3395">
        <ele>53</ele>
        <time>2025-06-17T14:05:09Z</time>
      </trkpt>
      <trkpt lat="47.69574" lon="-2.33955">
        <ele>55</ele>
        <time>2025-06-17T14:05:37Z</time>
      </trkpt>
      <trkpt lat="47.69527" lon="-2.33947">
        <ele>58</ele>
        <time>2025-06-17T14:06:40Z</time>
      </trkpt>
      <trkpt lat="47.69506" lon="-2.3395">
        <ele>59</ele>
        <time>2025-06-17T14:07:08Z</time>
      </trkpt>
      <trkpt lat="47.69477" lon="-2.33965">
        <ele>61</ele>
        <time>2025-06-17T14:07:49Z</time>
      </trkpt>
      <trkpt lat="47.69436" lon="-2.34001">
        <ele>62</ele>
        <time>2025-06-17T14:08:52Z</time>
      </trkpt>
      <trkpt lat="47.6932" lon="-2.34069">
        <ele>68</ele>
        <time>2025-06-17T14:11:39Z</time>
      </trkpt>
      <trkpt lat="47.69291" lon="-2.3412">
        <ele>69</ele>
        <time>2025-06-17T14:12:39Z</time>
      </trkpt>
      <trkpt lat="47.6929" lon="-2.34142">
        <ele>69</ele>
        <time>2025-06-17T14:12:59Z</time>
      </trkpt>
      <trkpt lat="47.69307" lon="-2.34179">
        <ele>69</ele>
        <time>2025-06-17T14:13:39Z</time>
      </trkpt>
      <trkpt lat="47.69309" lon="-2.34318">
        <ele>70</ele>
        <time>2025-06-17T14:15:44Z</time>
      </trkpt>
      <trkpt lat="47.69295" lon="-2.34334">
        <ele>72</ele>
        <time>2025-06-17T14:16:07Z</time>
      </trkpt>
      <trkpt lat="47.69285" lon="-2.34368">
        <ele>72</ele>
        <time>2025-06-17T14:16:41Z</time>
      </trkpt>
      <trkpt lat="47.69287" lon="-2.34381">
        <ele>72</ele>
        <time>2025-06-17T14:16:53Z</time>
      </trkpt>
      <trkpt lat="47.69302" lon="-2.34399">
        <ele>71</ele>
        <time>2025-06-17T14:17:18Z</time>
      </trkpt>
      <trkpt lat="47.69302" lon="-2.34444">
        <ele>71</ele>
        <time>2025-06-17T14:17:59Z</time>
      </trkpt>
      <trkpt lat="47.69296" lon="-2.34447">
        <ele>71</ele>
        <time>2025-06-17T14:18:07Z</time>
      </trkpt>
      <trkpt lat="47.69307" lon="-2.34466">
        <ele>71</ele>
        <time>2025-06-17T14:18:30Z</time>
      </trkpt>
      <trkpt lat="47.69306" lon="-2.34517">
        <ele>70</ele>
        <time>2025-06-17T14:19:15Z</time>
      </trkpt>
      <trkpt lat="47.69279" lon="-2.34617">
        <ele>67</ele>
        <time>2025-06-17T14:20:52Z</time>
      </trkpt>
      <trkpt lat="47.6929" lon="-2.34733">
        <ele>56</ele>
        <time>2025-06-17T14:22:37Z</time>
      </trkpt>
      <trkpt lat="47.69282" lon="-2.3474">
        <ele>56</ele>
        <time>2025-06-17T14:22:50Z</time>
      </trkpt>
      <trkpt lat="47.69267" lon="-2.34726">
        <ele>58</ele>
        <time>2025-06-17T14:23:13Z</time>
      </trkpt>
      <trkpt lat="47.69263" lon="-2.34688">
        <ele>62</ele>
        <time>2025-06-17T14:23:48Z</time>
      </trkpt>
      <trkpt lat="47.69253" lon="-2.34669">
        <ele>65</ele>
        <time>2025-06-17T14:24:10Z</time>
      </trkpt>
      <trkpt lat="47.69226" lon="-2.34687">
        <ele>60</ele>
        <time>2025-06-17T14:24:49Z</time>
      </trkpt>
      <trkpt lat="47.69208" lon="-2.3468">
        <ele>58</ele>
        <time>2025-06-17T14:25:14Z</time>
      </trkpt>
      <trkpt lat="47.69182" lon="-2.34635">
        <ele>57</ele>
        <time>2025-06-17T14:26:07Z</time>
      </trkpt>
      <trkpt lat="47.69163" lon="-2.34559">
        <ele>59</ele>
        <time>2025-06-17T14:27:20Z</time>
      </trkpt>
      <trkpt lat="47.69152" lon="-2.34451">
        <ele>60</ele>
        <time>2025-06-17T14:28:58Z</time>
      </trkpt>
      <trkpt lat="47.69142" lon="-2.3433">
        <ele>59</ele>
        <time>2025-06-17T14:30:48Z</time>
      </trkpt>
      <trkpt lat="47.69153" lon="-2.34289">
        <ele>62</ele>
        <time>2025-06-17T14:31:27Z</time>
      </trkpt>
      <trkpt lat="47.69134" lon="-2.34282">
        <ele>59</ele>
        <time>2025-06-17T14:31:54Z</time>
      </trkpt>
      <trkpt lat="47.69132" lon="-2.34288">
        <ele>58</ele>
        <time>2025-06-17T14:32:00Z</time>
      </trkpt>
      <trkpt lat="47.69129" lon="-2.34295">
        <ele>58</ele>
        <time>2025-06-17T14:32:07Z</time>
      </trkpt>
      <trkpt lat="47.69125" lon="-2.34298">
        <ele>57</ele>
        <time>2025-06-17T14:32:13Z</time>
      </trkpt>
      <trkpt lat="47.69125" lon="-2.34298">
        <ele>57</ele>
        <time>2025-06-17T14:32:13Z</time>
      </trkpt>
      <trkpt lat="47.69127" lon="-2.3431">
        <ele>57</ele>
        <time>2025-06-17T14:32:24Z</time>
      </trkpt>
      <trkpt lat="47.69122" lon="-2.34311">
        <ele>56</ele>
        <time>2025-06-17T14:32:31Z</time>
      </trkpt>
      <trkpt lat="47.69108" lon="-2.34318">
        <ele>54</ele>
        <time>2025-06-17T14:32:50Z</time>
      </trkpt>
      <trkpt lat="47.69088" lon="-2.3431">
        <ele>51</ele>
        <time>2025-06-17T14:33:18Z</time>
      </trkpt>
      <trkpt lat="47.69074" lon="-2.34317">
        <ele>51</ele>
        <time>2025-06-17T14:33:38Z</time>
      </trkpt>
      <trkpt lat="47.69067" lon="-2.34341">
        <ele>51</ele>
        <time>2025-06-17T14:34:01Z</time>
      </trkpt>
      <trkpt lat="47.69068" lon="-2.34375">
        <ele>51</ele>
        <time>2025-06-17T14:34:32Z</time>
      </trkpt>
      <trkpt lat="47.69064" lon="-2.3441">
        <ele>51</ele>
        <time>2025-06-17T14:35:04Z</time>
      </trkpt>
      <trkpt lat="47.69052" lon="-2.3446">
        <ele>51</ele>
        <time>2025-06-17T14:35:51Z</time>
      </trkpt>
      <trkpt lat="47.69052" lon="-2.34529">
        <ele>50</ele>
        <time>2025-06-17T14:36:53Z</time>
      </trkpt>
      <trkpt lat="47.69063" lon="-2.34561">
        <ele>51</ele>
        <time>2025-06-17T14:37:26Z</time>
      </trkpt>
      <trkpt lat="47.69075" lon="-2.346">
        <ele>51</ele>
        <time>2025-06-17T14:38:04Z</time>
      </trkpt>
      <trkpt lat="47.69078" lon="-2.34661">
        <ele>50</ele>
        <time>2025-06-17T14:38:59Z</time>
      </trkpt>
      <trkpt lat="47.69077" lon="-2.34759">
        <ele>48</ele>
        <time>2025-06-17T14:40:27Z</time>
      </trkpt>
      <trkpt lat="47.69063" lon="-2.34797">
        <ele>48</ele>
        <time>2025-06-17T14:41:06Z</time>
      </trkpt>
      <trkpt lat="47.6904" lon="-2.3483">
        <ele>49</ele>
        <time>2025-06-17T14:41:49Z</time>
      </trkpt>
      <trkpt lat="47.69016" lon="-2.34856">
        <ele>50</ele>
        <time>2025-06-17T14:42:28Z</time>
      </trkpt>
      <trkpt lat="47.68999" lon="-2.34872">
        <ele>49</ele>
        <time>2025-06-17T14:42:55Z</time>
      </trkpt>
      <trkpt lat="47.68983" lon="-2.34883">
        <ele>48</ele>
        <time>2025-06-17T14:43:19Z</time>
      </trkpt>
      <trkpt lat="47.68954" lon="-2.34896">
        <ele>47</ele>
        <time>2025-06-17T14:43:59Z</time>
      </trkpt>
      <trkpt lat="47.68924" lon="-2.34901">
        <ele>46</ele>
        <time>2025-06-17T14:44:40Z</time>
      </trkpt>
      <trkpt lat="47.68902" lon="-2.34906">
        <ele>46</ele>
        <time>2025-06-17T14:45:09Z</time>
      </trkpt>
      <trkpt lat="47.68874" lon="-2.34926">
        <ele>46</ele>
        <time>2025-06-17T14:45:51Z</time>
      </trkpt>
      <trkpt lat="47.68848" lon="-2.34975">
        <ele>47</ele>
        <time>2025-06-17T14:46:47Z</time>
      </trkpt>
      <trkpt lat="47.68846" lon="-2.34984">
        <ele>47</ele>
        <time>2025-06-17T14:46:55Z</time>
      </trkpt>
      <trkpt lat="47.68844" lon="-2.34992">
        <ele>47</ele>
        <time>2025-06-17T14:47:03Z</time>
      </trkpt>
      <trkpt lat="47.68844" lon="-2.35012">
        <ele>46</ele>
        <time>2025-06-17T14:47:21Z</time>
      </trkpt>
      <trkpt lat="47.68847" lon="-2.35051">
        <ele>45</ele>
        <time>2025-06-17T14:47:56Z</time>
      </trkpt>
      <trkpt lat="47.68851" lon="-2.35073">
        <ele>45</ele>
        <time>2025-06-17T14:48:17Z</time>
      </trkpt>
      <trkpt lat="47.6886" lon="-2.35091">
        <ele>45</ele>
        <time>2025-06-17T14:48:37Z</time>
      </trkpt>
      <trkpt lat="47.6887" lon="-2.35104">
        <ele>45</ele>
        <time>2025-06-17T14:48:55Z</time>
      </trkpt>
      <trkpt lat="47.68881" lon="-2.35118">
        <ele>45</ele>
        <time>2025-06-17T14:49:14Z</time>
      </trkpt>
      <trkpt lat="47.68984" lon="-2.35195">
        <ele>45</ele>
        <time>2025-06-17T14:51:48Z</time>
      </trkpt>
      <trkpt lat="47.68994" lon="-2.35213">
        <ele>45</ele>
        <time>2025-06-17T14:52:09Z</time>
      </trkpt>
      <trkpt lat="47.68997" lon="-2.35246">
        <ele>46</ele>
        <time>2025-06-17T14:52:39Z</time>
      </trkpt>
      <trkpt lat="47.68994" lon="-2.35277">
        <ele>46</ele>
        <time>2025-06-17T14:53:07Z</time>
      </trkpt>
      <trkpt lat="47.68995" lon="-2.35309">
        <ele>46</ele>
        <time>2025-06-17T14:53:36Z</time>
      </trkpt>
      <trkpt lat="47.68994" lon="-2.35351">
        <ele>46</ele>
        <time>2025-06-17T14:54:13Z</time>
      </trkpt>
      <trkpt lat="47.68987" lon="-2.35386">
        <ele>46</ele>
        <time>2025-06-17T14:54:46Z</time>
      </trkpt>
      <trkpt lat="47.68964" lon="-2.35471">
        <ele>46</ele>
        <time>2025-06-17T14:56:08Z</time>
      </trkpt>
      <trkpt lat="47.68958" lon="-2.35489">
        <ele>46</ele>
        <time>2025-06-17T14:56:26Z</time>
      </trkpt>
      <trkpt lat="47.6895" lon="-2.35501">
        <ele>46</ele>
        <time>2025-06-17T14:56:42Z</time>
      </trkpt>
      <trkpt lat="47.68946" lon="-2.35505">
        <ele>47</ele>
        <time>2025-06-17T14:56:48Z</time>
      </trkpt>
      <trkpt lat="47.68944" lon="-2.3551">
        <ele>47</ele>
        <time>2025-06-17T14:56:53Z</time>
      </trkpt>
      <trkpt lat="47.68944" lon="-2.35546">
        <ele>46</ele>
        <time>2025-06-17T14:57:26Z</time>
      </trkpt>
      <trkpt lat="47.68926" lon="-2.35612">
        <ele>46</ele>
        <time>2025-06-17T14:58:30Z</time>
      </trkpt>
      <trkpt lat="47.68926" lon="-2.35631">
        <ele>45</ele>
        <time>2025-06-17T14:58:47Z</time>
      </trkpt>
      <trkpt lat="47.68938" lon="-2.35747">
        <ele>46</ele>
        <time>2025-06-17T15:00:32Z</time>
      </trkpt>
      <trkpt lat="47.68936" lon="-2.35788">
        <ele>47</ele>
        <time>2025-06-17T15:01:09Z</time>
      </trkpt>
      <trkpt lat="47.68939" lon="-2.3581">
        <ele>47</ele>
        <time>2025-06-17T15:01:29Z</time>
      </trkpt>
      <trkpt lat="47.68957" lon="-2.35852">
        <ele>47</ele>
        <time>2025-06-17T15:02:14Z</time>
      </trkpt>
      <trkpt lat="47.6896" lon="-2.35857">
        <ele>47</ele>
        <time>2025-06-17T15:02:20Z</time>
      </trkpt>
      <trkpt lat="47.68966" lon="-2.35859">
        <ele>47</ele>
        <time>2025-06-17T15:02:28Z</time>
      </trkpt>
      <trkpt lat="47.68971" lon="-2.35858">
        <ele>47</ele>
        <time>2025-06-17T15:02:35Z</time>
      </trkpt>
      <trkpt lat="47.68979" lon="-2.35853">
        <ele>47</ele>
        <time>2025-06-17T15:02:46Z</time>
      </trkpt>
      <trkpt lat="47.68979" lon="-2.35853">
        <ele>47</ele>
        <time>2025-06-17T15:02:46Z</time>
      </trkpt>
      <trkpt lat="47.68979" lon="-2.35853">
        <ele>47</ele>
        <time>2025-06-17T15:02:46Z</time>
      </trkpt>
      <trkpt lat="47.68987" lon="-2.35838">
        <ele>47</ele>
        <time>2025-06-17T15:03:04Z</time>
      </trkpt>
      <trkpt lat="47.68995" lon="-2.358">
        <ele>47</ele>
        <time>2025-06-17T15:03:39Z</time>
      </trkpt>
      <trkpt lat="47.68997" lon="-2.35781">
        <ele>47</ele>
        <time>2025-06-17T15:03:57Z</time>
      </trkpt>
      <trkpt lat="47.69" lon="-2.35746">
        <ele>47</ele>
        <time>2025-06-17T15:04:28Z</time>
      </trkpt>
      <trkpt lat="47.69004" lon="-2.35726">
        <ele>47</ele>
        <time>2025-06-17T15:04:47Z</time>
      </trkpt>
      <trkpt lat="47.6901" lon="-2.35711">
        <ele>47</ele>
        <time>2025-06-17T15:05:03Z</time>
      </trkpt>
      <trkpt lat="47.69016" lon="-2.35692">
        <ele>48</ele>
        <time>2025-06-17T15:05:22Z</time>
      </trkpt>
      <trkpt lat="47.69031" lon="-2.35657">
        <ele>48</ele>
        <time>2025-06-17T15:05:59Z</time>
      </trkpt>
      <trkpt lat="47.69049" lon="-2.35594">
        <ele>47</ele>
        <time>2025-06-17T15:07:00Z</time>
      </trkpt>
      <trkpt lat="47.69059" lon="-2.35569">
        <ele>47</ele>
        <time>2025-06-17T15:07:26Z</time>
      </trkpt>
      <trkpt lat="47.69075" lon="-2.35541">
        <ele>47</ele>
        <time>2025-06-17T15:07:59Z</time>
      </trkpt>
      <trkpt lat="47.6912" lon="-2.35461">
        <ele>48</ele>
        <time>2025-06-17T15:09:33Z</time>
      </trkpt>
      <trkpt lat="47.6913" lon="-2.35456">
        <ele>49</ele>
        <time>2025-06-17T15:09:47Z</time>
      </trkpt>
      <trkpt lat="47.6914" lon="-2.35444">
        <ele>50</ele>
        <time>2025-06-17T15:10:04Z</time>
      </trkpt>
      <trkpt lat="47.6915" lon="-2.35409">
        <ele>52</ele>
        <time>2025-06-17T15:10:38Z</time>
      </trkpt>
      <trkpt lat="47.69154" lon="-2.35399">
        <ele>52</ele>
        <time>2025-06-17T15:10:49Z</time>
      </trkpt>
      <trkpt lat="47.69165" lon="-2.35389">
        <ele>54</ele>
        <time>2025-06-17T15:11:06Z</time>
      </trkpt>
      <trkpt lat="47.69161" lon="-2.35374">
        <ele>54</ele>
        <time>2025-06-17T15:11:21Z</time>
      </trkpt>
      <trkpt lat="47.6917" lon="-2.35361">
        <ele>55</ele>
        <time>2025-06-17T15:11:37Z</time>
      </trkpt>
      <trkpt lat="47.69173" lon="-2.35279">
        <ele>56</ele>
        <time>2025-06-17T15:12:51Z</time>
      </trkpt>
      <trkpt lat="47.69174" lon="-2.35258">
        <ele>56</ele>
        <time>2025-06-17T15:13:10Z</time>
      </trkpt>
      <trkpt lat="47.69177" lon="-2.3523">
        <ele>56</ele>
        <time>2025-06-17T15:13:36Z</time>
      </trkpt>
      <trkpt lat="47.69194" lon="-2.35217">
        <ele>57</ele>
        <time>2025-06-17T15:14:01Z</time>
      </trkpt>
      <trkpt lat="47.69207" lon="-2.35151">
        <ele>59</ele>
        <time>2025-06-17T15:15:03Z</time>
      </trkpt>
      <trkpt lat="47.69228" lon="-2.35158">
        <ele>61</ele>
        <time>2025-06-17T15:15:32Z</time>
      </trkpt>
      <trkpt lat="47.69257" lon="-2.35174">
        <ele>64</ele>
        <time>2025-06-17T15:16:13Z</time>
      </trkpt>
      <trkpt lat="47.69265" lon="-2.35153">
        <ele>66</ele>
        <time>2025-06-17T15:16:34Z</time>
      </trkpt>
      <trkpt lat="47.69258" lon="-2.35149">
        <ele>65</ele>
        <time>2025-06-17T15:16:44Z</time>
      </trkpt>
      <trkpt lat="47.69252" lon="-2.35137">
        <ele>64</ele>
        <time>2025-06-17T15:16:58Z</time>
      </trkpt>
      <trkpt lat="47.69253" lon="-2.35126">
        <ele>64</ele>
        <time>2025-06-17T15:17:08Z</time>
      </trkpt>
      <trkpt lat="47.6927" lon="-2.35072">
        <ele>66</ele>
        <time>2025-06-17T15:18:01Z</time>
      </trkpt>
      <trkpt lat="47.6927" lon="-2.35059">
        <ele>65</ele>
        <time>2025-06-17T15:18:13Z</time>
      </trkpt>
      <trkpt lat="47.69262" lon="-2.35047">
        <ele>63</ele>
        <time>2025-06-17T15:18:28Z</time>
      </trkpt>
      <trkpt lat="47.69261" lon="-2.3504">
        <ele>63</ele>
        <time>2025-06-17T15:18:35Z</time>
      </trkpt>
      <trkpt lat="47.69261" lon="-2.35025">
        <ele>62</ele>
        <time>2025-06-17T15:18:48Z</time>
      </trkpt>
      <trkpt lat="47.69257" lon="-2.35007">
        <ele>60</ele>
        <time>2025-06-17T15:19:05Z</time>
      </trkpt>
      <trkpt lat="47.69265" lon="-2.35008">
        <ele>60</ele>
        <time>2025-06-17T15:19:16Z</time>
      </trkpt>
      <trkpt lat="47.69273" lon="-2.35005">
        <ele>61</ele>
        <time>2025-06-17T15:19:27Z</time>
      </trkpt>
      <trkpt lat="47.69278" lon="-2.35003">
        <ele>61</ele>
        <time>2025-06-17T15:19:34Z</time>
      </trkpt>
      <trkpt lat="47.69282" lon="-2.35">
        <ele>61</ele>
        <time>2025-06-17T15:19:40Z</time>
      </trkpt>
      <trkpt lat="47.69286" lon="-2.35002">
        <ele>61</ele>
        <time>2025-06-17T15:19:45Z</time>
      </trkpt>
      <trkpt lat="47.69295" lon="-2.35012">
        <ele>62</ele>
        <time>2025-06-17T15:20:00Z</time>
      </trkpt>
      <trkpt lat="47.69314" lon="-2.3508">
        <ele>72</ele>
        <time>2025-06-17T15:21:07Z</time>
      </trkpt>
      <trkpt lat="47.69314" lon="-2.35081">
        <ele>72</ele>
        <time>2025-06-17T15:21:07Z</time>
      </trkpt>
      <trkpt lat="47.69326" lon="-2.35127">
        <ele>74</ele>
        <time>2025-06-17T15:21:52Z</time>
      </trkpt>
      <trkpt lat="47.69339" lon="-2.35173">
        <ele>76</ele>
        <time>2025-06-17T15:22:37Z</time>
      </trkpt>
      <trkpt lat="47.69343" lon="-2.35192">
        <ele>75</ele>
        <time>2025-06-17T15:22:54Z</time>
      </trkpt>
      <trkpt lat="47.69351" lon="-2.3521">
        <ele>75</ele>
        <time>2025-06-17T15:23:14Z</time>
      </trkpt>
      <trkpt lat="47.69358" lon="-2.35223">
        <ele>75</ele>
        <time>2025-06-17T15:23:29Z</time>
      </trkpt>
      <trkpt lat="47.69374" lon="-2.35245">
        <ele>75</ele>
        <time>2025-06-17T15:23:58Z</time>
      </trkpt>
      <trkpt lat="47.69412" lon="-2.35286">
        <ele>76</ele>
        <time>2025-06-17T15:25:01Z</time>
      </trkpt>
      <trkpt lat="47.69442" lon="-2.35314">
        <ele>76</ele>
        <time>2025-06-17T15:25:48Z</time>
      </trkpt>
      <trkpt lat="47.6948" lon="-2.35335">
        <ele>77</ele>
        <time>2025-06-17T15:26:42Z</time>
      </trkpt>
      <trkpt lat="47.69487" lon="-2.35337">
        <ele>77</ele>
        <time>2025-06-17T15:26:51Z</time>
      </trkpt>
      <trkpt lat="47.69493" lon="-2.35339">
        <ele>77</ele>
        <time>2025-06-17T15:27:00Z</time>
      </trkpt>
      <trkpt lat="47.69504" lon="-2.35338">
        <ele>77</ele>
        <time>2025-06-17T15:27:14Z</time>
      </trkpt>
      <trkpt lat="47.69537" lon="-2.35328">
        <ele>77</ele>
        <time>2025-06-17T15:27:59Z</time>
      </trkpt>
      <trkpt lat="47.69615" lon="-2.35321">
        <ele>75</ele>
        <time>2025-06-17T15:29:44Z</time>
      </trkpt>
      <trkpt lat="47.69662" lon="-2.35324">
        <ele>74</ele>
        <time>2025-06-17T15:30:46Z</time>
      </trkpt>
      <trkpt lat="47.6971" lon="-2.35334">
        <ele>71</ele>
        <time>2025-06-17T15:31:51Z</time>
      </trkpt>
      <trkpt lat="47.69756" lon="-2.35335">
        <ele>68</ele>
        <time>2025-06-17T15:32:52Z</time>
      </trkpt>
      <trkpt lat="47.69769" lon="-2.35337">
        <ele>68</ele>
        <time>2025-06-17T15:33:10Z</time>
      </trkpt>
      <trkpt lat="47.69795" lon="-2.35343">
        <ele>67</ele>
        <time>2025-06-17T15:33:45Z</time>
      </trkpt>
      <trkpt lat="47.69828" lon="-2.35345">
        <ele>66</ele>
        <time>2025-06-17T15:34:29Z</time>
      </trkpt>
      <trkpt lat="47.69841" lon="-2.35347">
        <ele>65</ele>
        <time>2025-06-17T15:34:47Z</time>
      </trkpt>
      <trkpt lat="47.69851" lon="-2.3535">
        <ele>65</ele>
        <time>2025-06-17T15:35:00Z</time>
      </trkpt>
      <trkpt lat="47.6987" lon="-2.35358">
        <ele>64</ele>
        <time>2025-06-17T15:35:27Z</time>
      </trkpt>
      <trkpt lat="47.69881" lon="-2.35359">
        <ele>64</ele>
        <time>2025-06-17T15:35:41Z</time>
      </trkpt>
      <trkpt lat="47.69913" lon="-2.3536">
        <ele>62</ele>
        <time>2025-06-17T15:36:24Z</time>
      </trkpt>
      <trkpt lat="47.69935" lon="-2.35356">
        <ele>61</ele>
        <time>2025-06-17T15:36:54Z</time>
      </trkpt>
      <trkpt lat="47.69972" lon="-2.35351">
        <ele>60</ele>
        <time>2025-06-17T15:37:43Z</time>
      </trkpt>
      <trkpt lat="47.69974" lon="-2.3535">
        <ele>60</ele>
        <time>2025-06-17T15:37:46Z</time>
      </trkpt>
      <trkpt lat="47.69988" lon="-2.35348">
        <ele>59</ele>
        <time>2025-06-17T15:38:05Z</time>
      </trkpt>
      <trkpt lat="47.70011" lon="-2.35354">
        <ele>58</ele>
        <time>2025-06-17T15:38:36Z</time>
      </trkpt>
      <trkpt lat="47.70023" lon="-2.35359">
        <ele>58</ele>
        <time>2025-06-17T15:38:52Z</time>
      </trkpt>
      <trkpt lat="47.70031" lon="-2.35367">
        <ele>57</ele>
        <time>2025-06-17T15:39:05Z</time>
      </trkpt>
      <trkpt lat="47.70035" lon="-2.35376">
        <ele>57</ele>
        <time>2025-06-17T15:39:15Z</time>
      </trkpt>
      <trkpt lat="47.70042" lon="-2.35395">
        <ele>57</ele>
        <time>2025-06-17T15:39:34Z</time>
      </trkpt>
      <trkpt lat="47.70046" lon="-2.35415">
        <ele>56</ele>
        <time>2025-06-17T15:39:53Z</time>
      </trkpt>
      <trkpt lat="47.70051" lon="-2.35425">
        <ele>56</ele>
        <time>2025-06-17T15:40:04Z</time>
      </trkpt>
      <trkpt lat="47.70055" lon="-2.3543">
        <ele>56</ele>
        <time>2025-06-17T15:40:11Z</time>
      </trkpt>
      <trkpt lat="47.70063" lon="-2.35433">
        <ele>56</ele>
        <time>2025-06-17T15:40:22Z</time>
      </trkpt>
      <trkpt lat="47.7008" lon="-2.35429">
        <ele>55</ele>
        <time>2025-06-17T15:40:45Z</time>
      </trkpt>
      <trkpt lat="47.70094" lon="-2.35422">
        <ele>55</ele>
        <time>2025-06-17T15:41:05Z</time>
      </trkpt>
      <trkpt lat="47.7012" lon="-2.35399">
        <ele>56</ele>
        <time>2025-06-17T15:41:45Z</time>
      </trkpt>
      <trkpt lat="47.70125" lon="-2.35395">
        <ele>56</ele>
        <time>2025-06-17T15:41:53Z</time>
      </trkpt>
      <trkpt lat="47.70135" lon="-2.3539">
        <ele>57</ele>
        <time>2025-06-17T15:42:07Z</time>
      </trkpt>
      <trkpt lat="47.70143" lon="-2.35363">
        <ele>57</ele>
        <time>2025-06-17T15:42:34Z</time>
      </trkpt>
      <trkpt lat="47.70173" lon="-2.35353">
        <ele>58</ele>
        <time>2025-06-17T15:43:15Z</time>
      </trkpt>
      <trkpt lat="47.70197" lon="-2.35348">
        <ele>58</ele>
        <time>2025-06-17T15:43:47Z</time>
      </trkpt>
      <trkpt lat="47.70217" lon="-2.35339">
        <ele>58</ele>
        <time>2025-06-17T15:44:15Z</time>
      </trkpt>
      <trkpt lat="47.70236" lon="-2.35328">
        <ele>58</ele>
        <time>2025-06-17T15:44:42Z</time>
      </trkpt>
      <trkpt lat="47.70264" lon="-2.35298">
        <ele>56</ele>
        <time>2025-06-17T15:45:28Z</time>
      </trkpt>
      <trkpt lat="47.70283" lon="-2.35278">
        <ele>53</ele>
        <time>2025-06-17T15:45:59Z</time>
      </trkpt>
      <trkpt lat="47.703" lon="-2.35252">
        <ele>51</ele>
        <time>2025-06-17T15:46:32Z</time>
      </trkpt>
      <trkpt lat="47.70319" lon="-2.35236">
        <ele>48</ele>
        <time>2025-06-17T15:47:01Z</time>
      </trkpt>
      <trkpt lat="47.70337" lon="-2.35259">
        <ele>45</ele>
        <time>2025-06-17T15:47:33Z</time>
      </trkpt>
      <trkpt lat="47.70346" lon="-2.35262">
        <ele>46</ele>
        <time>2025-06-17T15:47:45Z</time>
      </trkpt>
      <trkpt lat="47.70394" lon="-2.35261">
        <ele>49</ele>
        <time>2025-06-17T15:48:49Z</time>
      </trkpt>
      <trkpt lat="47.70402" lon="-2.35264">
        <ele>49</ele>
        <time>2025-06-17T15:49:00Z</time>
      </trkpt>
      <trkpt lat="47.70405" lon="-2.35282">
        <ele>49</ele>
        <time>2025-06-17T15:49:17Z</time>
      </trkpt>
      <trkpt lat="47.7041" lon="-2.35418">
        <ele>50</ele>
        <time>2025-06-17T15:51:19Z</time>
      </trkpt>
      <trkpt lat="47.70406" lon="-2.35477">
        <ele>50</ele>
        <time>2025-06-17T15:52:12Z</time>
      </trkpt>
      <trkpt lat="47.70412" lon="-2.35555">
        <ele>51</ele>
        <time>2025-06-17T15:53:23Z</time>
      </trkpt>
      <trkpt lat="47.70433" lon="-2.35677">
        <ele>56</ele>
        <time>2025-06-17T15:55:16Z</time>
      </trkpt>
      <trkpt lat="47.70443" lon="-2.35741">
        <ele>55</ele>
        <time>2025-06-17T15:56:15Z</time>
      </trkpt>
      <trkpt lat="47.70447" lon="-2.35785">
        <ele>54</ele>
        <time>2025-06-17T15:56:55Z</time>
      </trkpt>
      <trkpt lat="47.70454" lon="-2.3582">
        <ele>55</ele>
        <time>2025-06-17T15:57:27Z</time>
      </trkpt>
      <trkpt lat="47.70498" lon="-2.36042">
        <ele>58</ele>
        <time>2025-06-17T16:00:55Z</time>
      </trkpt>
      <trkpt lat="47.70511" lon="-2.36028">
        <ele>60</ele>
        <time>2025-06-17T16:01:17Z</time>
      </trkpt>
      <trkpt lat="47.70524" lon="-2.36007">
        <ele>63</ele>
        <time>2025-06-17T16:01:42Z</time>
      </trkpt>
      <trkpt lat="47.70525" lon="-2.35978">
        <ele>63</ele>
        <time>2025-06-17T16:02:08Z</time>
      </trkpt>
      <trkpt lat="47.70524" lon="-2.35952">
        <ele>64</ele>
        <time>2025-06-17T16:02:32Z</time>
      </trkpt>
      <trkpt lat="47.70526" lon="-2.35934">
        <ele>64</ele>
        <time>2025-06-17T16:02:48Z</time>
      </trkpt>
      <trkpt lat="47.7053" lon="-2.35924">
        <ele>65</ele>
        <time>2025-06-17T16:02:59Z</time>
      </trkpt>
      <trkpt lat="47.70531" lon="-2.35921">
        <ele>65</ele>
        <time>2025-06-17T16:03:02Z</time>
      </trkpt>
      <trkpt lat="47.70538" lon="-2.35911">
        <ele>67</ele>
        <time>2025-06-17T16:03:15Z</time>
      </trkpt>
      <trkpt lat="47.70545" lon="-2.35896">
        <ele>68</ele>
        <time>2025-06-17T16:03:31Z</time>
      </trkpt>
      <trkpt lat="47.70553" lon="-2.35885">
        <ele>70</ele>
        <time>2025-06-17T16:03:46Z</time>
      </trkpt>
      <trkpt lat="47.70557" lon="-2.35871">
        <ele>70</ele>
        <time>2025-06-17T16:03:59Z</time>
      </trkpt>
      <trkpt lat="47.70556" lon="-2.35858">
        <ele>70</ele>
        <time>2025-06-17T16:04:11Z</time>
      </trkpt>
      <trkpt lat="47.70556" lon="-2.35839">
        <ele>70</ele>
        <time>2025-06-17T16:04:28Z</time>
      </trkpt>
      <trkpt lat="47.70553" lon="-2.35822">
        <ele>70</ele>
        <time>2025-06-17T16:04:44Z</time>
      </trkpt>
      <trkpt lat="47.70547" lon="-2.35808">
        <ele>69</ele>
        <time>2025-06-17T16:04:59Z</time>
      </trkpt>
      <trkpt lat="47.70543" lon="-2.35797">
        <ele>69</ele>
        <time>2025-06-17T16:05:10Z</time>
      </trkpt>
      <trkpt lat="47.70548" lon="-2.35771">
        <ele>70</ele>
        <time>2025-06-17T16:05:34Z</time>
      </trkpt>
      <trkpt lat="47.7053" lon="-2.35732">
        <ele>69</ele>
        <time>2025-06-17T16:06:17Z</time>
      </trkpt>
      <trkpt lat="47.70526" lon="-2.35701">
        <ele>69</ele>
        <time>2025-06-17T16:06:45Z</time>
      </trkpt>
      <trkpt lat="47.70525" lon="-2.35681">
        <ele>69</ele>
        <time>2025-06-17T16:07:03Z</time>
      </trkpt>
      <trkpt lat="47.70521" lon="-2.35666">
        <ele>70</ele>
        <time>2025-06-17T16:07:17Z</time>
      </trkpt>
      <trkpt lat="47.70519" lon="-2.35647">
        <ele>70</ele>
        <time>2025-06-17T16:07:35Z</time>
      </trkpt>
      <trkpt lat="47.70523" lon="-2.35631">
        <ele>70</ele>
        <time>2025-06-17T16:07:50Z</time>
      </trkpt>
      <trkpt lat="47.7052" lon="-2.35615">
        <ele>70</ele>
        <time>2025-06-17T16:08:05Z</time>
      </trkpt>
      <trkpt lat="47.70519" lon="-2.35593">
        <ele>70</ele>
        <time>2025-06-17T16:08:25Z</time>
      </trkpt>
      <trkpt lat="47.70516" lon="-2.35586">
        <ele>70</ele>
        <time>2025-06-17T16:08:32Z</time>
      </trkpt>
      <trkpt lat="47.70518" lon="-2.3558">
        <ele>70</ele>
        <time>2025-06-17T16:08:38Z</time>
      </trkpt>
      <trkpt lat="47.70522" lon="-2.35579">
        <ele>70</ele>
        <time>2025-06-17T16:08:44Z</time>
      </trkpt>
      <trkpt lat="47.70526" lon="-2.35571">
        <ele>71</ele>
        <time>2025-06-17T16:08:53Z</time>
      </trkpt>
      <trkpt lat="47.70529" lon="-2.35569">
        <ele>71</ele>
        <time>2025-06-17T16:08:57Z</time>
      </trkpt>
      <trkpt lat="47.70535" lon="-2.35568">
        <ele>72</ele>
        <time>2025-06-17T16:09:05Z</time>
      </trkpt>
      <trkpt lat="47.70536" lon="-2.35567">
        <ele>72</ele>
        <time>2025-06-17T16:09:07Z</time>
      </trkpt>
      <trkpt lat="47.70538" lon="-2.35565">
        <ele>72</ele>
        <time>2025-06-17T16:09:10Z</time>
      </trkpt>
      <trkpt lat="47.70537" lon="-2.35545">
        <ele>71</ele>
        <time>2025-06-17T16:09:28Z</time>
      </trkpt>
      <trkpt lat="47.70534" lon="-2.35538">
        <ele>70</ele>
        <time>2025-06-17T16:09:35Z</time>
      </trkpt>
      <trkpt lat="47.70537" lon="-2.35522">
        <ele>70</ele>
        <time>2025-06-17T16:09:50Z</time>
      </trkpt>
      <trkpt lat="47.70537" lon="-2.35513">
        <ele>70</ele>
        <time>2025-06-17T16:09:58Z</time>
      </trkpt>
      <trkpt lat="47.70542" lon="-2.35497">
        <ele>70</ele>
        <time>2025-06-17T16:10:14Z</time>
      </trkpt>
      <trkpt lat="47.70543" lon="-2.35491">
        <ele>70</ele>
        <time>2025-06-17T16:10:20Z</time>
      </trkpt>
      <trkpt lat="47.7054" lon="-2.35489">
        <ele>70</ele>
        <time>2025-06-17T16:10:24Z</time>
      </trkpt>
      <trkpt lat="47.70536" lon="-2.35483">
        <ele>69</ele>
        <time>2025-06-17T16:10:32Z</time>
      </trkpt>
      <trkpt lat="47.70531" lon="-2.35477">
        <ele>68</ele>
        <time>2025-06-17T16:10:40Z</time>
      </trkpt>
      <trkpt lat="47.70529" lon="-2.35473">
        <ele>68</ele>
        <time>2025-06-17T16:10:45Z</time>
      </trkpt>
      <trkpt lat="47.70528" lon="-2.35462">
        <ele>68</ele>
        <time>2025-06-17T16:10:55Z</time>
      </trkpt>
      <trkpt lat="47.70529" lon="-2.35452">
        <ele>68</ele>
        <time>2025-06-17T16:11:04Z</time>
      </trkpt>
      <trkpt lat="47.70529" lon="-2.35446">
        <ele>68</ele>
        <time>2025-06-17T16:11:09Z</time>
      </trkpt>
      <trkpt lat="47.7053" lon="-2.35433">
        <ele>68</ele>
        <time>2025-06-17T16:11:21Z</time>
      </trkpt>
      <trkpt lat="47.7053" lon="-2.35424">
        <ele>68</ele>
        <time>2025-06-17T16:11:29Z</time>
      </trkpt>
      <trkpt lat="47.70528" lon="-2.35412">
        <ele>68</ele>
        <time>2025-06-17T16:11:40Z</time>
      </trkpt>
      <trkpt lat="47.70527" lon="-2.35403">
        <ele>67</ele>
        <time>2025-06-17T16:11:48Z</time>
      </trkpt>
      <trkpt lat="47.70525" lon="-2.35387">
        <ele>67</ele>
        <time>2025-06-17T16:12:03Z</time>
      </trkpt>
      <trkpt lat="47.70524" lon="-2.35377">
        <ele>67</ele>
        <time>2025-06-17T16:12:12Z</time>
      </trkpt>
      <trkpt lat="47.70524" lon="-2.35335">
        <ele>66</ele>
        <time>2025-06-17T16:12:50Z</time>
      </trkpt>
      <trkpt lat="47.70525" lon="-2.35313">
        <ele>67</ele>
        <time>2025-06-17T16:13:10Z</time>
      </trkpt>
      <trkpt lat="47.70526" lon="-2.353">
        <ele>67</ele>
        <time>2025-06-17T16:13:21Z</time>
      </trkpt>
      <trkpt lat="47.70529" lon="-2.35294">
        <ele>68</ele>
        <time>2025-06-17T16:13:28Z</time>
      </trkpt>
      <trkpt lat="47.70532" lon="-2.35291">
        <ele>68</ele>
        <time>2025-06-17T16:13:33Z</time>
      </trkpt>
      <trkpt lat="47.70547" lon="-2.35276">
        <ele>70</ele>
        <time>2025-06-17T16:13:57Z</time>
      </trkpt>
      <trkpt lat="47.70546" lon="-2.35271">
        <ele>70</ele>
        <time>2025-06-17T16:14:02Z</time>
      </trkpt>
      <trkpt lat="47.70543" lon="-2.35266">
        <ele>70</ele>
        <time>2025-06-17T16:14:08Z</time>
      </trkpt>
      <trkpt lat="47.70544" lon="-2.3525">
        <ele>70</ele>
        <time>2025-06-17T16:14:22Z</time>
      </trkpt>
      <trkpt lat="47.70538" lon="-2.35243">
        <ele>70</ele>
        <time>2025-06-17T16:14:32Z</time>
      </trkpt>
      <trkpt lat="47.70536" lon="-2.35229">
        <ele>69</ele>
        <time>2025-06-17T16:14:45Z</time>
      </trkpt>
      <trkpt lat="47.70534" lon="-2.35218">
        <ele>69</ele>
        <time>2025-06-17T16:14:55Z</time>
      </trkpt>
      <trkpt lat="47.70534" lon="-2.35207">
        <ele>69</ele>
        <time>2025-06-17T16:15:05Z</time>
      </trkpt>
      <trkpt lat="47.70536" lon="-2.35202">
        <ele>70</ele>
        <time>2025-06-17T16:15:10Z</time>
      </trkpt>
      <trkpt lat="47.70535" lon="-2.352">
        <ele>70</ele>
        <time>2025-06-17T16:15:13Z</time>
      </trkpt>
      <trkpt lat="47.70533" lon="-2.35191">
        <ele>69</ele>
        <time>2025-06-17T16:15:21Z</time>
      </trkpt>
      <trkpt lat="47.70534" lon="-2.35187">
        <ele>70</ele>
        <time>2025-06-17T16:15:25Z</time>
      </trkpt>
      <trkpt lat="47.70536" lon="-2.35181">
        <ele>70</ele>
        <time>2025-06-17T16:15:31Z</time>
      </trkpt>
      <trkpt lat="47.70537" lon="-2.35171">
        <ele>70</ele>
        <time>2025-06-17T16:15:40Z</time>
      </trkpt>
      <trkpt lat="47.70537" lon="-2.35163">
        <ele>70</ele>
        <time>2025-06-17T16:15:47Z</time>
      </trkpt>
      <trkpt lat="47.70535" lon="-2.35154">
        <ele>70</ele>
        <time>2025-06-17T16:15:56Z</time>
      </trkpt>
      <trkpt lat="47.70532" lon="-2.35147">
        <ele>70</ele>
        <time>2025-06-17T16:16:03Z</time>
      </trkpt>
      <trkpt lat="47.7053" lon="-2.35138">
        <ele>70</ele>
        <time>2025-06-17T16:16:12Z</time>
      </trkpt>
      <trkpt lat="47.7053" lon="-2.35129">
        <ele>70</ele>
        <time>2025-06-17T16:16:20Z</time>
      </trkpt>
      <trkpt lat="47.70531" lon="-2.35121">
        <ele>70</ele>
        <time>2025-06-17T16:16:27Z</time>
      </trkpt>
      <trkpt lat="47.70531" lon="-2.35113">
        <ele>71</ele>
        <time>2025-06-17T16:16:34Z</time>
      </trkpt>
      <trkpt lat="47.70533" lon="-2.3511">
        <ele>71</ele>
        <time>2025-06-17T16:16:38Z</time>
      </trkpt>
      <trkpt lat="47.70536" lon="-2.35109">
        <ele>71</ele>
        <time>2025-06-17T16:16:42Z</time>
      </trkpt>
      <trkpt lat="47.70543" lon="-2.35102">
        <ele>72</ele>
        <time>2025-06-17T16:16:54Z</time>
      </trkpt>
      <trkpt lat="47.70548" lon="-2.35096">
        <ele>72</ele>
        <time>2025-06-17T16:17:02Z</time>
      </trkpt>
      <trkpt lat="47.70549" lon="-2.35092">
        <ele>72</ele>
        <time>2025-06-17T16:17:06Z</time>
      </trkpt>
      <trkpt lat="47.70556" lon="-2.35084">
        <ele>73</ele>
        <time>2025-06-17T16:17:18Z</time>
      </trkpt>
      <trkpt lat="47.70559" lon="-2.35065">
        <ele>74</ele>
        <time>2025-06-17T16:17:35Z</time>
      </trkpt>
      <trkpt lat="47.70564" lon="-2.35057">
        <ele>74</ele>
        <time>2025-06-17T16:17:45Z</time>
      </trkpt>
      <trkpt lat="47.70566" lon="-2.35053">
        <ele>74</ele>
        <time>2025-06-17T16:17:50Z</time>
      </trkpt>
      <trkpt lat="47.70564" lon="-2.35041">
        <ele>74</ele>
        <time>2025-06-17T16:18:01Z</time>
      </trkpt>
      <trkpt lat="47.70566" lon="-2.35025">
        <ele>75</ele>
        <time>2025-06-17T16:18:15Z</time>
      </trkpt>
      <trkpt lat="47.70567" lon="-2.3502">
        <ele>75</ele>
        <time>2025-06-17T16:18:20Z</time>
      </trkpt>
      <trkpt lat="47.70571" lon="-2.35015">
        <ele>75</ele>
        <time>2025-06-17T16:18:27Z</time>
      </trkpt>
      <trkpt lat="47.70573" lon="-2.35006">
        <ele>75</ele>
        <time>2025-06-17T16:18:35Z</time>
      </trkpt>
      <trkpt lat="47.70569" lon="-2.34989">
        <ele>75</ele>
        <time>2025-06-17T16:18:52Z</time>
      </trkpt>
      <trkpt lat="47.70569" lon="-2.3498">
        <ele>75</ele>
        <time>2025-06-17T16:19:00Z</time>
      </trkpt>
      <trkpt lat="47.70563" lon="-2.34959">
        <ele>75</ele>
        <time>2025-06-17T16:19:20Z</time>
      </trkpt>
      <trkpt lat="47.70552" lon="-2.34916">
        <ele>76</ele>
        <time>2025-06-17T16:20:01Z</time>
      </trkpt>
      <trkpt lat="47.70543" lon="-2.34894">
        <ele>75</ele>
        <time>2025-06-17T16:20:25Z</time>
      </trkpt>
      <trkpt lat="47.7053" lon="-2.34867">
        <ele>75</ele>
        <time>2025-06-17T16:20:54Z</time>
      </trkpt>
      <trkpt lat="47.70522" lon="-2.34837">
        <ele>75</ele>
        <time>2025-06-17T16:21:23Z</time>
      </trkpt>
      <trkpt lat="47.70521" lon="-2.34824">
        <ele>75</ele>
        <time>2025-06-17T16:21:35Z</time>
      </trkpt>
      <trkpt lat="47.70521" lon="-2.34814">
        <ele>75</ele>
        <time>2025-06-17T16:21:44Z</time>
      </trkpt>
      <trkpt lat="47.70518" lon="-2.34803">
        <ele>75</ele>
        <time>2025-06-17T16:21:55Z</time>
      </trkpt>
      <trkpt lat="47.70514" lon="-2.34795">
        <ele>75</ele>
        <time>2025-06-17T16:22:04Z</time>
      </trkpt>
      <trkpt lat="47.70509" lon="-2.34792">
        <ele>75</ele>
        <time>2025-06-17T16:22:11Z</time>
      </trkpt>
      <trkpt lat="47.70498" lon="-2.34791">
        <ele>74</ele>
        <time>2025-06-17T16:22:26Z</time>
      </trkpt>
      <trkpt lat="47.70495" lon="-2.34784">
        <ele>73</ele>
        <time>2025-06-17T16:22:33Z</time>
      </trkpt>
      <trkpt lat="47.70491" lon="-2.34781">
        <ele>73</ele>
        <time>2025-06-17T16:22:39Z</time>
      </trkpt>
      <trkpt lat="47.70478" lon="-2.34779">
        <ele>70</ele>
        <time>2025-06-17T16:22:57Z</time>
      </trkpt>
      <trkpt lat="47.70473" lon="-2.34774">
        <ele>70</ele>
        <time>2025-06-17T16:23:05Z</time>
      </trkpt>
      <trkpt lat="47.7047" lon="-2.34768">
        <ele>69</ele>
        <time>2025-06-17T16:23:11Z</time>
      </trkpt>
      <trkpt lat="47.70466" lon="-2.34755">
        <ele>69</ele>
        <time>2025-06-17T16:23:24Z</time>
      </trkpt>
      <trkpt lat="47.70459" lon="-2.34744">
        <ele>68</ele>
        <time>2025-06-17T16:23:38Z</time>
      </trkpt>
      <trkpt lat="47.70451" lon="-2.34737">
        <ele>67</ele>
        <time>2025-06-17T16:23:50Z</time>
      </trkpt>
      <trkpt lat="47.70444" lon="-2.34741">
        <ele>66</ele>
        <time>2025-06-17T16:24:00Z</time>
      </trkpt>
      <trkpt lat="47.70439" lon="-2.34738">
        <ele>65</ele>
        <time>2025-06-17T16:24:07Z</time>
      </trkpt>
      <trkpt lat="47.70435" lon="-2.34732">
        <ele>65</ele>
        <time>2025-06-17T16:24:15Z</time>
      </trkpt>
      <trkpt lat="47.70434" lon="-2.34727">
        <ele>65</ele>
        <time>2025-06-17T16:24:20Z</time>
      </trkpt>
      <trkpt lat="47.70432" lon="-2.34721">
        <ele>65</ele>
        <time>2025-06-17T16:24:26Z</time>
      </trkpt>
      <trkpt lat="47.70434" lon="-2.34716">
        <ele>65</ele>
        <time>2025-06-17T16:24:31Z</time>
      </trkpt>
      <trkpt lat="47.70437" lon="-2.34708">
        <ele>66</ele>
        <time>2025-06-17T16:24:39Z</time>
      </trkpt>
      <trkpt lat="47.70438" lon="-2.34694">
        <ele>66</ele>
        <time>2025-06-17T16:24:52Z</time>
      </trkpt>
      <trkpt lat="47.7044" lon="-2.34682">
        <ele>67</ele>
        <time>2025-06-17T16:25:03Z</time>
      </trkpt>
      <trkpt lat="47.70436" lon="-2.34678">
        <ele>67</ele>
        <time>2025-06-17T16:25:09Z</time>
      </trkpt>
      <trkpt lat="47.70433" lon="-2.34666">
        <ele>67</ele>
        <time>2025-06-17T16:25:21Z</time>
      </trkpt>
      <trkpt lat="47.70429" lon="-2.34662">
        <ele>67</ele>
        <time>2025-06-17T16:25:27Z</time>
      </trkpt>
      <trkpt lat="47.70425" lon="-2.34653">
        <ele>67</ele>
        <time>2025-06-17T16:25:37Z</time>
      </trkpt>
      <trkpt lat="47.7042" lon="-2.34642">
        <ele>67</ele>
        <time>2025-06-17T16:25:49Z</time>
      </trkpt>
      <trkpt lat="47.70415" lon="-2.34632">
        <ele>67</ele>
        <time>2025-06-17T16:26:00Z</time>
      </trkpt>
      <trkpt lat="47.7041" lon="-2.34605">
        <ele>67</ele>
        <time>2025-06-17T16:26:25Z</time>
      </trkpt>
      <trkpt lat="47.70405" lon="-2.34594">
        <ele>67</ele>
        <time>2025-06-17T16:26:37Z</time>
      </trkpt>
      <trkpt lat="47.70399" lon="-2.34571">
        <ele>67</ele>
        <time>2025-06-17T16:26:59Z</time>
      </trkpt>
      <trkpt lat="47.70398" lon="-2.34563">
        <ele>67</ele>
        <time>2025-06-17T16:27:06Z</time>
      </trkpt>
      <trkpt lat="47.70398" lon="-2.34553">
        <ele>68</ele>
        <time>2025-06-17T16:27:15Z</time>
      </trkpt>
      <trkpt lat="47.70394" lon="-2.34537">
        <ele>67</ele>
        <time>2025-06-17T16:27:31Z</time>
      </trkpt>
      <trkpt lat="47.70393" lon="-2.34524">
        <ele>68</ele>
        <time>2025-06-17T16:27:43Z</time>
      </trkpt>
      <trkpt lat="47.70391" lon="-2.34522">
        <ele>67</ele>
        <time>2025-06-17T16:27:46Z</time>
      </trkpt>
      <trkpt lat="47.70389" lon="-2.34517">
        <ele>67</ele>
        <time>2025-06-17T16:27:51Z</time>
      </trkpt>
      <trkpt lat="47.7038" lon="-2.34514">
        <ele>65</ele>
        <time>2025-06-17T16:28:03Z</time>
      </trkpt>
      <trkpt lat="47.70378" lon="-2.34511">
        <ele>65</ele>
        <time>2025-06-17T16:28:07Z</time>
      </trkpt>
      <trkpt lat="47.70373" lon="-2.34509">
        <ele>64</ele>
        <time>2025-06-17T16:28:14Z</time>
      </trkpt>
      <trkpt lat="47.70365" lon="-2.34499">
        <ele>63</ele>
        <time>2025-06-17T16:28:28Z</time>
      </trkpt>
      <trkpt lat="47.70363" lon="-2.3449">
        <ele>63</ele>
        <time>2025-06-17T16:28:36Z</time>
      </trkpt>
      <trkpt lat="47.70363" lon="-2.34487">
        <ele>63</ele>
        <time>2025-06-17T16:28:39Z</time>
      </trkpt>
      <trkpt lat="47.70364" lon="-2.3448">
        <ele>64</ele>
        <time>2025-06-17T16:28:46Z</time>
      </trkpt>
      <trkpt lat="47.70371" lon="-2.34454">
        <ele>66</ele>
        <time>2025-06-17T16:29:11Z</time>
      </trkpt>
      <trkpt lat="47.70375" lon="-2.34447">
        <ele>67</ele>
        <time>2025-06-17T16:29:19Z</time>
      </trkpt>
      <trkpt lat="47.70376" lon="-2.34441">
        <ele>67</ele>
        <time>2025-06-17T16:29:24Z</time>
      </trkpt>
      <trkpt lat="47.70375" lon="-2.34422">
        <ele>67</ele>
        <time>2025-06-17T16:29:42Z</time>
      </trkpt>
      <trkpt lat="47.7037" lon="-2.344">
        <ele>67</ele>
        <time>2025-06-17T16:30:02Z</time>
      </trkpt>
      <trkpt lat="47.70369" lon="-2.34378">
        <ele>67</ele>
        <time>2025-06-17T16:30:22Z</time>
      </trkpt>
      <trkpt lat="47.70369" lon="-2.3437">
        <ele>68</ele>
        <time>2025-06-17T16:30:29Z</time>
      </trkpt>
      <trkpt lat="47.7037" lon="-2.34364">
        <ele>68</ele>
        <time>2025-06-17T16:30:35Z</time>
      </trkpt>
      <trkpt lat="47.70366" lon="-2.34328">
        <ele>68</ele>
        <time>2025-06-17T16:31:08Z</time>
      </trkpt>
      <trkpt lat="47.7036" lon="-2.34318">
        <ele>68</ele>
        <time>2025-06-17T16:31:20Z</time>
      </trkpt>
      <trkpt lat="47.70358" lon="-2.34306">
        <ele>68</ele>
        <time>2025-06-17T16:31:31Z</time>
      </trkpt>
      <trkpt lat="47.70354" lon="-2.34291">
        <ele>67</ele>
        <time>2025-06-17T16:31:45Z</time>
      </trkpt>
      <trkpt lat="47.70354" lon="-2.34282">
        <ele>67</ele>
        <time>2025-06-17T16:31:53Z</time>
      </trkpt>
      <trkpt lat="47.70346" lon="-2.3427">
        <ele>67</ele>
        <time>2025-06-17T16:32:09Z</time>
      </trkpt>
      <trkpt lat="47.70341" lon="-2.34259">
        <ele>66</ele>
        <time>2025-06-17T16:32:21Z</time>
      </trkpt>
      <trkpt lat="47.7034" lon="-2.34251">
        <ele>66</ele>
        <time>2025-06-17T16:32:28Z</time>
      </trkpt>
      <trkpt lat="47.70341" lon="-2.34232">
        <ele>67</ele>
        <time>2025-06-17T16:32:45Z</time>
      </trkpt>
      <trkpt lat="47.7034" lon="-2.34222">
        <ele>67</ele>
        <time>2025-06-17T16:32:54Z</time>
      </trkpt>
      <trkpt lat="47.70336" lon="-2.34195">
        <ele>67</ele>
        <time>2025-06-17T16:33:19Z</time>
      </trkpt>
      <trkpt lat="47.70337" lon="-2.34186">
        <ele>67</ele>
        <time>2025-06-17T16:33:27Z</time>
      </trkpt>
      <trkpt lat="47.70339" lon="-2.3418">
        <ele>67</ele>
        <time>2025-06-17T16:33:33Z</time>
      </trkpt>
      <trkpt lat="47.70337" lon="-2.34171">
        <ele>67</ele>
        <time>2025-06-17T16:33:42Z</time>
      </trkpt>
      <trkpt lat="47.70336" lon="-2.34151">
        <ele>68</ele>
        <time>2025-06-17T16:34:00Z</time>
      </trkpt>
      <trkpt lat="47.70335" lon="-2.34147">
        <ele>68</ele>
        <time>2025-06-17T16:34:03Z</time>
      </trkpt>
      <trkpt lat="47.7033" lon="-2.34124">
        <ele>69</ele>
        <time>2025-06-17T16:34:25Z</time>
      </trkpt>
      <trkpt lat="47.70325" lon="-2.34117">
        <ele>68</ele>
        <time>2025-06-17T16:34:34Z</time>
      </trkpt>
      <trkpt lat="47.70323" lon="-2.34115">
        <ele>68</ele>
        <time>2025-06-17T16:34:38Z</time>
      </trkpt>
      <trkpt lat="47.70307" lon="-2.34095">
        <ele>66</ele>
        <time>2025-06-17T16:35:05Z</time>
      </trkpt>
      <trkpt lat="47.70301" lon="-2.34088">
        <ele>65</ele>
        <time>2025-06-17T16:35:16Z</time>
      </trkpt>
      <trkpt lat="47.70288" lon="-2.34072">
        <ele>64</ele>
        <time>2025-06-17T16:35:38Z</time>
      </trkpt>
      <trkpt lat="47.70286" lon="-2.34064">
        <ele>64</ele>
        <time>2025-06-17T16:35:46Z</time>
      </trkpt>
      <trkpt lat="47.70286" lon="-2.34059">
        <ele>64</ele>
        <time>2025-06-17T16:35:50Z</time>
      </trkpt>
      <trkpt lat="47.70286" lon="-2.34055">
        <ele>64</ele>
        <time>2025-06-17T16:35:54Z</time>
      </trkpt>
      <trkpt lat="47.70292" lon="-2.34039">
        <ele>66</ele>
        <time>2025-06-17T16:36:10Z</time>
      </trkpt>
      <trkpt lat="47.70291" lon="-2.34031">
        <ele>66</ele>
        <time>2025-06-17T16:36:18Z</time>
      </trkpt>
      <trkpt lat="47.70295" lon="-2.34011">
        <ele>67</ele>
        <time>2025-06-17T16:36:36Z</time>
      </trkpt>
      <trkpt lat="47.70293" lon="-2.34003">
        <ele>67</ele>
        <time>2025-06-17T16:36:44Z</time>
      </trkpt>
      <trkpt lat="47.70291" lon="-2.33992">
        <ele>67</ele>
        <time>2025-06-17T16:36:54Z</time>
      </trkpt>
      <trkpt lat="47.70294" lon="-2.33981">
        <ele>67</ele>
        <time>2025-06-17T16:37:05Z</time>
      </trkpt>
      <trkpt lat="47.70298" lon="-2.33972">
        <ele>68</ele>
        <time>2025-06-17T16:37:15Z</time>
      </trkpt>
      <trkpt lat="47.70298" lon="-2.33955">
        <ele>67</ele>
        <time>2025-06-17T16:37:30Z</time>
      </trkpt>
      <trkpt lat="47.703" lon="-2.33948">
        <ele>68</ele>
        <time>2025-06-17T16:37:37Z</time>
      </trkpt>
      <trkpt lat="47.70302" lon="-2.33944">
        <ele>68</ele>
        <time>2025-06-17T16:37:41Z</time>
      </trkpt>
      <trkpt lat="47.70302" lon="-2.3393">
        <ele>68</ele>
        <time>2025-06-17T16:37:54Z</time>
      </trkpt>
      <trkpt lat="47.70305" lon="-2.3392">
        <ele>68</ele>
        <time>2025-06-17T16:38:04Z</time>
      </trkpt>
      <trkpt lat="47.70302" lon="-2.3391">
        <ele>67</ele>
        <time>2025-06-17T16:38:13Z</time>
      </trkpt>
      <trkpt lat="47.70305" lon="-2.3392">
        <ele>68</ele>
        <time>2025-06-17T16:38:23Z</time>
      </trkpt>
      <trkpt lat="47.70302" lon="-2.3393">
        <ele>68</ele>
        <time>2025-06-17T16:38:33Z</time>
      </trkpt>
      <trkpt lat="47.70302" lon="-2.33944">
        <ele>68</ele>
        <time>2025-06-17T16:38:46Z</time>
      </trkpt>
      <trkpt lat="47.703" lon="-2.33948">
        <ele>68</ele>
        <time>2025-06-17T16:38:50Z</time>
      </trkpt>
      <trkpt lat="47.70298" lon="-2.33955">
        <ele>67</ele>
        <time>2025-06-17T16:38:57Z</time>
      </trkpt>
      <trkpt lat="47.70298" lon="-2.33972">
        <ele>68</ele>
        <time>2025-06-17T16:39:12Z</time>
      </trkpt>
      <trkpt lat="47.70294" lon="-2.33981">
        <ele>67</ele>
        <time>2025-06-17T16:39:22Z</time>
      </trkpt>
      <trkpt lat="47.70291" lon="-2.33992">
        <ele>67</ele>
        <time>2025-06-17T16:39:33Z</time>
      </trkpt>
      <trkpt lat="47.70293" lon="-2.34003">
        <ele>67</ele>
        <time>2025-06-17T16:39:43Z</time>
      </trkpt>
      <trkpt lat="47.70295" lon="-2.34011">
        <ele>67</ele>
        <time>2025-06-17T16:39:50Z</time>
      </trkpt>
      <trkpt lat="47.70291" lon="-2.34031">
        <ele>66</ele>
        <time>2025-06-17T16:40:09Z</time>
      </trkpt>
      <trkpt lat="47.70292" lon="-2.34039">
        <ele>66</ele>
        <time>2025-06-17T16:40:17Z</time>
      </trkpt>
      <trkpt lat="47.70286" lon="-2.34055">
        <ele>64</ele>
        <time>2025-06-17T16:40:33Z</time>
      </trkpt>
      <trkpt lat="47.70286" lon="-2.34059">
        <ele>64</ele>
        <time>2025-06-17T16:40:37Z</time>
      </trkpt>
      <trkpt lat="47.70286" lon="-2.34064">
        <ele>64</ele>
        <time>2025-06-17T16:40:41Z</time>
      </trkpt>
      <trkpt lat="47.70288" lon="-2.34072">
        <ele>64</ele>
        <time>2025-06-17T16:40:49Z</time>
      </trkpt>
      <trkpt lat="47.70301" lon="-2.34088">
        <ele>65</ele>
        <time>2025-06-17T16:41:11Z</time>
      </trkpt>
      <trkpt lat="47.70307" lon="-2.34095">
        <ele>66</ele>
        <time>2025-06-17T16:41:21Z</time>
      </trkpt>
      <trkpt lat="47.70323" lon="-2.34115">
        <ele>68</ele>
        <time>2025-06-17T16:41:49Z</time>
      </trkpt>
      <trkpt lat="47.70317" lon="-2.34122">
        <ele>66</ele>
        <time>2025-06-17T16:42:00Z</time>
      </trkpt>
      <trkpt lat="47.70315" lon="-2.34126">
        <ele>65</ele>
        <time>2025-06-17T16:42:04Z</time>
      </trkpt>
      <trkpt lat="47.70313" lon="-2.34132">
        <ele>64</ele>
        <time>2025-06-17T16:42:10Z</time>
      </trkpt>
      <trkpt lat="47.70301" lon="-2.34143">
        <ele>61</ele>
        <time>2025-06-17T16:42:29Z</time>
      </trkpt>
      <trkpt lat="47.70287" lon="-2.34159">
        <ele>56</ele>
        <time>2025-06-17T16:42:52Z</time>
      </trkpt>
      <trkpt lat="47.70285" lon="-2.34163">
        <ele>55</ele>
        <time>2025-06-17T16:42:57Z</time>
      </trkpt>
      <trkpt lat="47.70283" lon="-2.34168">
        <ele>54</ele>
        <time>2025-06-17T16:43:02Z</time>
      </trkpt>
      <trkpt lat="47.7028" lon="-2.34169">
        <ele>54</ele>
        <time>2025-06-17T16:43:06Z</time>
      </trkpt>
      <trkpt lat="47.70276" lon="-2.34174">
        <ele>52</ele>
        <time>2025-06-17T16:43:13Z</time>
      </trkpt>
      <trkpt lat="47.70273" lon="-2.34176">
        <ele>52</ele>
        <time>2025-06-17T16:43:18Z</time>
      </trkpt>
      <trkpt lat="47.70272" lon="-2.34177">
        <ele>51</ele>
        <time>2025-06-17T16:43:19Z</time>
      </trkpt>
      <trkpt lat="47.7027" lon="-2.34184">
        <ele>51</ele>
        <time>2025-06-17T16:43:26Z</time>
      </trkpt>
      <trkpt lat="47.70264" lon="-2.34187">
        <ele>49</ele>
        <time>2025-06-17T16:43:34Z</time>
      </trkpt>
      <trkpt lat="47.7026" lon="-2.34194">
        <ele>48</ele>
        <time>2025-06-17T16:43:43Z</time>
      </trkpt>
      <trkpt lat="47.70253" lon="-2.34196">
        <ele>46</ele>
        <time>2025-06-17T16:43:52Z</time>
      </trkpt>
      <trkpt lat="47.70243" lon="-2.34186">
        <ele>46</ele>
        <time>2025-06-17T16:44:08Z</time>
      </trkpt>
      <trkpt lat="47.70219" lon="-2.34137">
        <ele>48</ele>
        <time>2025-06-17T16:45:03Z</time>
      </trkpt>
      <trkpt lat="47.70212" lon="-2.34129">
        <ele>48</ele>
        <time>2025-06-17T16:45:14Z</time>
      </trkpt>
      <trkpt lat="47.70203" lon="-2.34086">
        <ele>49</ele>
        <time>2025-06-17T16:45:55Z</time>
      </trkpt>
      <trkpt lat="47.70197" lon="-2.34044">
        <ele>47</ele>
        <time>2025-06-17T16:46:33Z</time>
      </trkpt>
      <trkpt lat="47.70194" lon="-2.34044">
        <ele>46</ele>
        <time>2025-06-17T16:46:37Z</time>
      </trkpt>
      <trkpt lat="47.70194" lon="-2.34044">
        <ele>46</ele>
        <time>2025-06-17T16:46:37Z</time>
      </trkpt>
      <trkpt lat="47.70187" lon="-2.34039">
        <ele>45</ele>
        <time>2025-06-17T16:46:48Z</time>
      </trkpt>
      <trkpt lat="47.70166" lon="-2.34033">
        <ele>41</ele>
        <time>2025-06-17T16:47:16Z</time>
      </trkpt>
      <trkpt lat="47.70153" lon="-2.34029">
        <ele>43</ele>
        <time>2025-06-17T16:47:34Z</time>
      </trkpt>
      <trkpt lat="47.7015" lon="-2.34031">
        <ele>43</ele>
        <time>2025-06-17T16:47:38Z</time>
      </trkpt>
      <trkpt lat="47.70147" lon="-2.34035">
        <ele>44</ele>
        <time>2025-06-17T16:47:44Z</time>
      </trkpt>
      <trkpt lat="47.70149" lon="-2.34057">
        <ele>45</ele>
        <time>2025-06-17T16:48:04Z</time>
      </trkpt>
      <trkpt lat="47.70159" lon="-2.34098">
        <ele>45</ele>
        <time>2025-06-17T16:48:43Z</time>
      </trkpt>
      <trkpt lat="47.70171" lon="-2.34142">
        <ele>46</ele>
        <time>2025-06-17T16:49:26Z</time>
      </trkpt>
      <trkpt lat="47.70172" lon="-2.34171">
        <ele>47</ele>
        <time>2025-06-17T16:49:52Z</time>
      </trkpt>
      <trkpt lat="47.7018" lon="-2.34204">
        <ele>49</ele>
        <time>2025-06-17T16:50:23Z</time>
      </trkpt>
      <trkpt lat="47.70187" lon="-2.34219">
        <ele>49</ele>
        <time>2025-06-17T16:50:40Z</time>
      </trkpt>
      <trkpt lat="47.70191" lon="-2.34248">
        <ele>50</ele>
        <time>2025-06-17T16:51:06Z</time>
      </trkpt>
      <trkpt lat="47.7019" lon="-2.34261">
        <ele>50</ele>
        <time>2025-06-17T16:51:18Z</time>
      </trkpt>
      <trkpt lat="47.70186" lon="-2.34264">
        <ele>50</ele>
        <time>2025-06-17T16:51:24Z</time>
      </trkpt>
      <trkpt lat="47.70181" lon="-2.34267">
        <ele>51</ele>
        <time>2025-06-17T16:51:31Z</time>
      </trkpt>
      <trkpt lat="47.70175" lon="-2.34273">
        <ele>52</ele>
        <time>2025-06-17T16:51:41Z</time>
      </trkpt>
      <trkpt lat="47.70171" lon="-2.34272">
        <ele>52</ele>
        <time>2025-06-17T16:51:46Z</time>
      </trkpt>
      <trkpt lat="47.70169" lon="-2.34267">
        <ele>52</ele>
        <time>2025-06-17T16:51:51Z</time>
      </trkpt>
      <trkpt lat="47.70165" lon="-2.34266">
        <ele>53</ele>
        <time>2025-06-17T16:51:57Z</time>
      </trkpt>
      <trkpt lat="47.70162" lon="-2.34264">
        <ele>53</ele>
        <time>2025-06-17T16:52:01Z</time>
      </trkpt>
      <trkpt lat="47.70161" lon="-2.34261">
        <ele>53</ele>
        <time>2025-06-17T16:52:04Z</time>
      </trkpt>
      <trkpt lat="47.70159" lon="-2.34229">
        <ele>52</ele>
        <time>2025-06-17T16:52:33Z</time>
      </trkpt>
      <trkpt lat="47.70154" lon="-2.34202">
        <ele>51</ele>
        <time>2025-06-17T16:52:58Z</time>
      </trkpt>
      <trkpt lat="47.70151" lon="-2.34199">
        <ele>51</ele>
        <time>2025-06-17T16:53:03Z</time>
      </trkpt>
      <trkpt lat="47.70149" lon="-2.34198">
        <ele>51</ele>
        <time>2025-06-17T16:53:06Z</time>
      </trkpt>
      <trkpt lat="47.70146" lon="-2.34206">
        <ele>52</ele>
        <time>2025-06-17T16:53:14Z</time>
      </trkpt>
      <trkpt lat="47.7015" lon="-2.3426">
        <ele>55</ele>
        <time>2025-06-17T16:54:03Z</time>
      </trkpt>
      <trkpt lat="47.70149" lon="-2.34267">
        <ele>55</ele>
        <time>2025-06-17T16:54:09Z</time>
      </trkpt>
      <trkpt lat="47.70143" lon="-2.34275">
        <ele>56</ele>
        <time>2025-06-17T16:54:20Z</time>
      </trkpt>
      <trkpt lat="47.70047" lon="-2.34295">
        <ele>72</ele>
        <time>2025-06-17T16:56:29Z</time>
      </trkpt>
      <trkpt lat="47.70001" lon="-2.343">
        <ele>80</ele>
        <time>2025-06-17T16:57:31Z</time>
      </trkpt>
      <trkpt lat="47.69958" lon="-2.34306">
        <ele>75</ele>
        <time>2025-06-17T16:58:29Z</time>
      </trkpt>
      <trkpt lat="47.69943" lon="-2.34311">
        <ele>74</ele>
        <time>2025-06-17T16:58:49Z</time>
      </trkpt>
      <trkpt lat="47.69943" lon="-2.34318">
        <ele>74</ele>
        <time>2025-06-17T16:58:55Z</time>
      </trkpt>
      <trkpt lat="47.69943" lon="-2.34318">
        <ele>74</ele>
        <time>2025-06-17T16:58:55Z</time>
      </trkpt>
      <trkpt lat="47.69943" lon="-2.34319">
        <ele>74</ele>
        <time>2025-06-17T16:58:56Z</time>
      </trkpt>
      <trkpt lat="47.69948" lon="-2.34322">
        <ele>74</ele>
        <time>2025-06-17T16:59:03Z</time>
      </trkpt>
      <trkpt lat="47.69965" lon="-2.34362">
        <ele>75</ele>
        <time>2025-06-17T16:59:46Z</time>
      </trkpt>
      <trkpt lat="47.69974" lon="-2.34364">
        <ele>76</ele>
        <time>2025-06-17T16:59:58Z</time>
      </trkpt>
      <trkpt lat="47.69975" lon="-2.34375">
        <ele>75</ele>
        <time>2025-06-17T17:00:08Z</time>
      </trkpt>
      <trkpt lat="47.69972" lon="-2.34393">
        <ele>74</ele>
        <time>2025-06-17T17:00:25Z</time>
      </trkpt>
      <trkpt lat="47.69977" lon="-2.34407">
        <ele>74</ele>
        <time>2025-06-17T17:00:39Z</time>
      </trkpt>
      <trkpt lat="47.6998" lon="-2.34412">
        <ele>75</ele>
        <time>2025-06-17T17:00:45Z</time>
      </trkpt>
      <trkpt lat="47.69986" lon="-2.34414">
        <ele>76</ele>
        <time>2025-06-17T17:00:53Z</time>
      </trkpt>
      <trkpt lat="47.69989" lon="-2.34414">
        <ele>76</ele>
        <time>2025-06-17T17:00:57Z</time>
      </trkpt>
      <trkpt lat="47.69989" lon="-2.3442">
        <ele>76</ele>
        <time>2025-06-17T17:01:03Z</time>
      </trkpt>
      <trkpt lat="47.69988" lon="-2.34431">
        <ele>75</ele>
        <time>2025-06-17T17:01:13Z</time>
      </trkpt>
      <trkpt lat="47.69981" lon="-2.34436">
        <ele>74</ele>
        <time>2025-06-17T17:01:23Z</time>
      </trkpt>
      <trkpt lat="47.69979" lon="-2.34451">
        <ele>73</ele>
        <time>2025-06-17T17:01:37Z</time>
      </trkpt>
      <trkpt lat="47.69974" lon="-2.34457">
        <ele>72</ele>
        <time>2025-06-17T17:01:45Z</time>
      </trkpt>
      <trkpt lat="47.69971" lon="-2.34459">
        <ele>71</ele>
        <time>2025-06-17T17:01:50Z</time>
      </trkpt>
      <trkpt lat="47.69969" lon="-2.34459">
        <ele>71</ele>
        <time>2025-06-17T17:01:52Z</time>
      </trkpt>
      <trkpt lat="47.69969" lon="-2.34467">
        <ele>71</ele>
        <time>2025-06-17T17:01:59Z</time>
      </trkpt>
      <trkpt lat="47.69965" lon="-2.34469">
        <ele>70</ele>
        <time>2025-06-17T17:02:05Z</time>
      </trkpt>
      <trkpt lat="47.69947" lon="-2.34403">
        <ele>70</ele>
        <time>2025-06-17T17:03:09Z</time>
      </trkpt>
      <trkpt lat="47.69938" lon="-2.34375">
        <ele>70</ele>
        <time>2025-06-17T17:03:37Z</time>
      </trkpt>
      <trkpt lat="47.69933" lon="-2.34361">
        <ele>70</ele>
        <time>2025-06-17T17:03:51Z</time>
      </trkpt>
      <trkpt lat="47.69929" lon="-2.34353">
        <ele>70</ele>
        <time>2025-06-17T17:04:00Z</time>
      </trkpt>
      <trkpt lat="47.69891" lon="-2.34247">
        <ele>67</ele>
        <time>2025-06-17T17:05:48Z</time>
      </trkpt>
      <trkpt lat="47.69875" lon="-2.34191">
        <ele>64</ele>
        <time>2025-06-17T17:06:43Z</time>
      </trkpt>
      <trkpt lat="47.69861" lon="-2.3411">
        <ele>59</ele>
        <time>2025-06-17T17:07:58Z</time>
      </trkpt>
      <trkpt lat="47.6986" lon="-2.34086">
        <ele>58</ele>
        <time>2025-06-17T17:08:19Z</time>
      </trkpt>
      <trkpt lat="47.69862" lon="-2.34072">
        <ele>58</ele>
        <time>2025-06-17T17:08:32Z</time>
      </trkpt>
      <trkpt lat="47.69864" lon="-2.34045">
        <ele>58</ele>
        <time>2025-06-17T17:08:57Z</time>
      </trkpt>
      <trkpt lat="47.69871" lon="-2.34022">
        <ele>59</ele>
        <time>2025-06-17T17:09:19Z</time>
      </trkpt>
      <trkpt lat="47.69885" lon="-2.34013">
        <ele>61</ele>
        <time>2025-06-17T17:09:40Z</time>
      </trkpt>
      <trkpt lat="47.6995" lon="-2.33909">
        <ele>65</ele>
        <time>2025-06-17T17:11:47Z</time>
      </trkpt>
      <trkpt lat="47.69966" lon="-2.33884">
        <ele>65</ele>
        <time>2025-06-17T17:12:18Z</time>
      </trkpt>
      <trkpt lat="47.69966" lon="-2.33884">
        <ele>65</ele>
        <time>2025-06-17T17:12:18Z</time>
      </trkpt>
      <trkpt lat="47.69972" lon="-2.33879">
        <ele>65</ele>
        <time>2025-06-17T17:12:27Z</time>
      </trkpt>
      <trkpt lat="47.69984" lon="-2.33875">
        <ele>65</ele>
        <time>2025-06-17T17:12:44Z</time>
      </trkpt>
      <trkpt lat="47.69986" lon="-2.33879">
        <ele>66</ele>
        <time>2025-06-17T17:12:48Z</time>
      </trkpt>
      <trkpt lat="47.69988" lon="-2.33883">
        <ele>66</ele>
        <time>2025-06-17T17:12:53Z</time>
      </trkpt>
      <trkpt lat="47.69988" lon="-2.33883">
        <ele>66</ele>
        <time>2025-06-17T17:12:53Z</time>
      </trkpt>
      <trkpt lat="47.69994" lon="-2.33892">
        <ele>67</ele>
        <time>2025-06-17T17:13:04Z</time>
      </trkpt>
      <trkpt lat="47.69997" lon="-2.33898">
        <ele>68</ele>
        <time>2025-06-17T17:13:11Z</time>
      </trkpt>
      <trkpt lat="47.70002" lon="-2.33914">
        <ele>69</ele>
        <time>2025-06-17T17:13:27Z</time>
      </trkpt>
      <trkpt lat="47.70002" lon="-2.33914">
        <ele>69</ele>
        <time>2025-06-17T17:13:27Z</time>
      </trkpt>
      <trkpt lat="47.69996" lon="-2.33922">
        <ele>70</ele>
        <time>2025-06-17T17:13:37Z</time>
      </trkpt>
      <trkpt lat="47.70005" lon="-2.33937">
        <ele>69</ele>
        <time>2025-06-17T17:13:55Z</time>
      </trkpt>
      <trkpt lat="47.70021" lon="-2.33914">
        <ele>65</ele>
        <time>2025-06-17T17:14:25Z</time>
      </trkpt>
      <trkpt lat="47.70032" lon="-2.33914">
        <ele>62</ele>
        <time>2025-06-17T17:14:40Z</time>
      </trkpt>
      <trkpt lat="47.70021" lon="-2.33914">
        <ele>65</ele>
        <time>2025-06-17T17:14:55Z</time>
      </trkpt>
      <trkpt lat="47.70016" lon="-2.33898">
        <ele>64</ele>
        <time>2025-06-17T17:15:10Z</time>
      </trkpt>
      <trkpt lat="47.70016" lon="-2.33895">
        <ele>64</ele>
        <time>2025-06-17T17:15:13Z</time>
      </trkpt>
      <trkpt lat="47.70015" lon="-2.33885">
        <ele>64</ele>
        <time>2025-06-17T17:15:22Z</time>
      </trkpt>
      <trkpt lat="47.70003" lon="-2.33804">
        <ele>60</ele>
        <time>2025-06-17T17:16:37Z</time>
      </trkpt>
      <trkpt lat="47.69998" lon="-2.33795">
        <ele>60</ele>
        <time>2025-06-17T17:16:47Z</time>
      </trkpt>
      <trkpt lat="47.69991" lon="-2.33795">
        <ele>60</ele>
        <time>2025-06-17T17:16:56Z</time>
      </trkpt>
      <trkpt lat="47.69976" lon="-2.33797">
        <ele>60</ele>
        <time>2025-06-17T17:17:17Z</time>
      </trkpt>
      <trkpt lat="47.69969" lon="-2.33801">
        <ele>60</ele>
        <time>2025-06-17T17:17:27Z</time>
      </trkpt>
      <trkpt lat="47.69962" lon="-2.33806">
        <ele>60</ele>
        <time>2025-06-17T17:17:37Z</time>
      </trkpt>
      <trkpt lat="47.69959" lon="-2.33793">
        <ele>59</ele>
        <time>2025-06-17T17:17:49Z</time>
      </trkpt>
      <trkpt lat="47.69958" lon="-2.33794">
        <ele>59</ele>
        <time>2025-06-17T17:17:51Z</time>
      </trkpt>
      <trkpt lat="47.69957" lon="-2.33792">
        <ele>59</ele>
        <time>2025-06-17T17:17:53Z</time>
      </trkpt>
      <trkpt lat="47.69949" lon="-2.33785">
        <ele>58</ele>
        <time>2025-06-17T17:18:05Z</time>
      </trkpt>
      <trkpt lat="47.69948" lon="-2.33784">
        <ele>58</ele>
        <time>2025-06-17T17:18:07Z</time>
      </trkpt>
      <trkpt lat="47.69942" lon="-2.33796">
        <ele>59</ele>
        <time>2025-06-17T17:18:21Z</time>
      </trkpt>
      <trkpt lat="47.69929" lon="-2.33829">
        <ele>59</ele>
        <time>2025-06-17T17:18:55Z</time>
      </trkpt>
      <trkpt lat="47.69928" lon="-2.33829">
        <ele>59</ele>
        <time>2025-06-17T17:18:56Z</time>
      </trkpt>
      <trkpt lat="47.6991" lon="-2.33824">
        <ele>58</ele>
        <time>2025-06-17T17:19:21Z</time>
      </trkpt>
      <trkpt lat="47.69909" lon="-2.33824">
        <ele>57</ele>
        <time>2025-06-17T17:19:22Z</time>
      </trkpt>
      <trkpt lat="47.69906" lon="-2.33854">
        <ele>58</ele>
        <time>2025-06-17T17:19:49Z</time>
      </trkpt>
      <trkpt lat="47.69897" lon="-2.33901">
        <ele>58</ele>
        <time>2025-06-17T17:20:33Z</time>
      </trkpt>
      <trkpt lat="47.69888" lon="-2.33897">
        <ele>56</ele>
        <time>2025-06-17T17:20:46Z</time>
      </trkpt>
      <trkpt lat="47.69862" lon="-2.33889">
        <ele>52</ele>
        <time>2025-06-17T17:21:21Z</time>
      </trkpt>
      <trkpt lat="47.69828" lon="-2.33885">
        <ele>46</ele>
        <time>2025-06-17T17:22:07Z</time>
      </trkpt>
      <trkpt lat="47.69831" lon="-2.33867">
        <ele>45</ele>
        <time>2025-06-17T17:22:23Z</time>
      </trkpt>
      <trkpt lat="47.69848" lon="-2.33869">
        <ele>48</ele>
        <time>2025-06-17T17:22:46Z</time>
      </trkpt>
      <trkpt lat="47.69855" lon="-2.33849">
        <ele>49</ele>
        <time>2025-06-17T17:23:06Z</time>
      </trkpt>
      <trkpt lat="47.6986" lon="-2.33866">
        <ele>50</ele>
        <time>2025-06-17T17:23:23Z</time>
      </trkpt>
      <trkpt lat="47.6986" lon="-2.33867">
        <ele>50</ele>
        <time>2025-06-17T17:23:24Z</time>
      </trkpt>
      <trkpt lat="47.6986" lon="-2.33866">
        <ele>50</ele>
        <time>2025-06-17T17:23:25Z</time>
      </trkpt>
      <trkpt lat="47.69872" lon="-2.33851">
        <ele>52</ele>
        <time>2025-06-17T17:23:46Z</time>
      </trkpt>
      <trkpt lat="47.6988" lon="-2.33834">
        <ele>52</ele>
        <time>2025-06-17T17:24:04Z</time>
      </trkpt>
      <trkpt lat="47.69901" lon="-2.33777">
        <ele>55</ele>
        <time>2025-06-17T17:25:03Z</time>
      </trkpt>
      <trkpt lat="47.6988" lon="-2.3376">
        <ele>50</ele>
        <time>2025-06-17T17:25:35Z</time>
      </trkpt>
      <trkpt lat="47.69876" lon="-2.33752">
        <ele>49</ele>
        <time>2025-06-17T17:25:43Z</time>
      </trkpt>
      <trkpt lat="47.69873" lon="-2.33737">
        <ele>48</ele>
        <time>2025-06-17T17:25:58Z</time>
      </trkpt>
      <trkpt lat="47.69877" lon="-2.33722">
        <ele>48</ele>
        <time>2025-06-17T17:26:12Z</time>
      </trkpt>
      <trkpt lat="47.69877" lon="-2.3372">
        <ele>48</ele>
        <time>2025-06-17T17:26:14Z</time>
      </trkpt>
      <trkpt lat="47.69874" lon="-2.33721">
        <ele>48</ele>
        <time>2025-06-17T17:26:18Z</time>
      </trkpt>
      <trkpt lat="47.69859" lon="-2.33712">
        <ele>44</ele>
        <time>2025-06-17T17:26:40Z</time>
      </trkpt>
      <trkpt lat="47.69833" lon="-2.33697">
        <ele>39</ele>
        <time>2025-06-17T17:27:17Z</time>
      </trkpt>
      <trkpt lat="47.6983" lon="-2.33697">
        <ele>39</ele>
        <time>2025-06-17T17:27:21Z</time>
      </trkpt>
      <trkpt lat="47.69819" lon="-2.33689">
        <ele>38</ele>
        <time>2025-06-17T17:27:37Z</time>
      </trkpt>
      <trkpt lat="47.6982" lon="-2.33666">
        <ele>38</ele>
        <time>2025-06-17T17:27:58Z</time>
      </trkpt>
      <trkpt lat="47.69817" lon="-2.33654">
        <ele>38</ele>
        <time>2025-06-17T17:28:09Z</time>
      </trkpt>
      <trkpt lat="47.69816" lon="-2.33652">
        <ele>38</ele>
        <time>2025-06-17T17:28:12Z</time>
      </trkpt>
      <trkpt lat="47.69817" lon="-2.33654">
        <ele>38</ele>
        <time>2025-06-17T17:28:14Z</time>
      </trkpt>
      <trkpt lat="47.6982" lon="-2.33666">
        <ele>38</ele>
        <time>2025-06-17T17:28:25Z</time>
      </trkpt>
      <trkpt lat="47.69819" lon="-2.33689">
        <ele>38</ele>
        <time>2025-06-17T17:28:46Z</time>
      </trkpt>
      <trkpt lat="47.6983" lon="-2.33697">
        <ele>39</ele>
        <time>2025-06-17T17:29:02Z</time>
      </trkpt>
      <trkpt lat="47.69833" lon="-2.33697">
        <ele>39</ele>
        <time>2025-06-17T17:29:06Z</time>
      </trkpt>
      <trkpt lat="47.69859" lon="-2.33712">
        <ele>44</ele>
        <time>2025-06-17T17:29:44Z</time>
      </trkpt>
      <trkpt lat="47.69874" lon="-2.33721">
        <ele>48</ele>
        <time>2025-06-17T17:30:05Z</time>
      </trkpt>
      <trkpt lat="47.69877" lon="-2.3372">
        <ele>48</ele>
        <time>2025-06-17T17:30:09Z</time>
      </trkpt>
      <trkpt lat="47.69878" lon="-2.33717">
        <ele>48</ele>
        <time>2025-06-17T17:30:12Z</time>
      </trkpt>
      <trkpt lat="47.69879" lon="-2.33708">
        <ele>48</ele>
        <time>2025-06-17T17:30:20Z</time>
      </trkpt>
      <trkpt lat="47.69883" lon="-2.33703">
        <ele>49</ele>
        <time>2025-06-17T17:30:27Z</time>
      </trkpt>
      <trkpt lat="47.69905" lon="-2.33702">
        <ele>53</ele>
        <time>2025-06-17T17:30:57Z</time>
      </trkpt>
      <trkpt lat="47.69925" lon="-2.33696">
        <ele>54</ele>
        <time>2025-06-17T17:31:24Z</time>
      </trkpt>
      <trkpt lat="47.69932" lon="-2.33711">
        <ele>55</ele>
        <time>2025-06-17T17:31:40Z</time>
      </trkpt>
      <trkpt lat="47.69934" lon="-2.33718">
        <ele>55</ele>
        <time>2025-06-17T17:31:47Z</time>
      </trkpt>
      <trkpt lat="47.69944" lon="-2.33719">
        <ele>55</ele>
        <time>2025-06-17T17:32:01Z</time>
      </trkpt>
      <trkpt lat="47.69944" lon="-2.33721">
        <ele>55</ele>
        <time>2025-06-17T17:32:02Z</time>
      </trkpt>
      <trkpt lat="47.69944" lon="-2.33719">
        <ele>55</ele>
        <time>2025-06-17T17:32:04Z</time>
      </trkpt>
      <trkpt lat="47.69945" lon="-2.33718">
        <ele>55</ele>
        <time>2025-06-17T17:32:06Z</time>
      </trkpt>
      <trkpt lat="47.69947" lon="-2.33701">
        <ele>54</ele>
        <time>2025-06-17T17:32:21Z</time>
      </trkpt>
      <trkpt lat="47.69947" lon="-2.33699">
        <ele>54</ele>
        <time>2025-06-17T17:32:23Z</time>
      </trkpt>
      <trkpt lat="47.69947" lon="-2.33682">
        <ele>53</ele>
        <time>2025-06-17T17:32:38Z</time>
      </trkpt>
      <trkpt lat="47.69946" lon="-2.33671">
        <ele>52</ele>
        <time>2025-06-17T17:32:48Z</time>
      </trkpt>
      <trkpt lat="47.69945" lon="-2.33662">
        <ele>51</ele>
        <time>2025-06-17T17:32:57Z</time>
      </trkpt>
      <trkpt lat="47.69944" lon="-2.33655">
        <ele>51</ele>
        <time>2025-06-17T17:33:03Z</time>
      </trkpt>
      <trkpt lat="47.69932" lon="-2.33614">
        <ele>51</ele>
        <time>2025-06-17T17:33:43Z</time>
      </trkpt>
      <trkpt lat="47.69929" lon="-2.33595">
        <ele>50</ele>
        <time>2025-06-17T17:34:01Z</time>
      </trkpt>
      <trkpt lat="47.69925" lon="-2.33569">
        <ele>50</ele>
        <time>2025-06-17T17:34:25Z</time>
      </trkpt>
      <trkpt lat="47.69924" lon="-2.33562">
        <ele>50</ele>
        <time>2025-06-17T17:34:31Z</time>
      </trkpt>
      <trkpt lat="47.69922" lon="-2.33547">
        <ele>50</ele>
        <time>2025-06-17T17:34:45Z</time>
      </trkpt>
      <trkpt lat="47.69919" lon="-2.33526">
        <ele>50</ele>
        <time>2025-06-17T17:35:04Z</time>
      </trkpt>
      <trkpt lat="47.69919" lon="-2.33515">
        <ele>50</ele>
        <time>2025-06-17T17:35:14Z</time>
      </trkpt>
      <trkpt lat="47.69922" lon="-2.33508">
        <ele>49</ele>
        <time>2025-06-17T17:35:21Z</time>
      </trkpt>
      <trkpt lat="47.69927" lon="-2.33504">
        <ele>48</ele>
        <time>2025-06-17T17:35:29Z</time>
      </trkpt>
      <trkpt lat="47.69909" lon="-2.3344">
        <ele>47</ele>
        <time>2025-06-17T17:36:31Z</time>
      </trkpt>
    </trkseg>
  </trk>
</gpx>